Observation data for Fort Lancaster on 09/09/2017      Previous  Date  Next       Current Mesonet Observations  Soil Data  Daily Summary Page  Observations in Plain Language
KLA1 090500Z 10004KT 23/10 A301 RMK A01 T02340097  RH  042%=      5-min Rain = 0
KLA1 090501Z 10004KT 23/10 A301 RMK A01 T02330096  RH  042%=      5-min Rain = 0
KLA1 090502Z 09004KT 23/10 A301 RMK A01 T02330097  RH  042%=      5-min Rain = 0
KLA1 090503Z 10005KT 23/10 A301 RMK A01 T02330096  RH  042%=      5-min Rain = 0
KLA1 090504Z 09004KT 23/10 A301 RMK A01 T02330096  RH  042%=      5-min Rain = 0
KLA1 090505Z 09005KT 23/10 A301 RMK A01 T02330097  RH  042%=      5-min Rain = 0
KLA1 090506Z 09004KT 23/10 A301 RMK A01 T02320097  RH  042%=      5-min Rain = 0
KLA1 090507Z 10004KT 23/10 A3011 RMK A01 T02310096  RH  042%=      5-min Rain = 0
KLA1 090508Z 10005KT 23/10 A3011 RMK A01 T02310096  RH  042%=      5-min Rain = 0
KLA1 090509Z 10006KT 23/10 A3011 RMK A01 T02310096  RH  042%=      5-min Rain = 0
KLA1 090510Z 09004KT 23/10 A3011 RMK A01 T02310096  RH  042%=      5-min Rain = 0
KLA1 090511Z 09005KT 23/10 A3011 RMK A01 T02310096  RH  042%=      5-min Rain = 0
KLA1 090512Z 09004KT 23/10 A3011 RMK A01 T02300096  RH  042%=      5-min Rain = 0
KLA1 090513Z 09005KT 23/10 A3011 RMK A01 T02290096  RH  043%=      5-min Rain = 0
KLA1 090514Z 09005KT 23/10 A3011 RMK A01 T02290096  RH  043%=      5-min Rain = 0
KLA1 090515Z 10005KT 23/10 A3011 RMK A01 T02290096  RH  043%=      5-min Rain = 0
KLA1 090516Z 10005KT 23/10 A3011 RMK A01 T02290095  RH  043%=      5-min Rain = 0
KLA1 090517Z 09005KT 23/10 A3011 RMK A01 T02310095  RH  042%=      5-min Rain = 0
KLA1 090518Z 08005KT 23/10 A3011 RMK A01 T02310096  RH  042%=      5-min Rain = 0
KLA1 090519Z 08005KT 23/10 A3011 RMK A01 T02310096  RH  042%=      5-min Rain = 0
KLA1 090520Z 08005KT 23/10 A3011 RMK A01 T02300096  RH  042%=      5-min Rain = 0
KLA1 090521Z 10004KT 23/10 A3011 RMK A01 T02290095  RH  042%=      5-min Rain = 0
KLA1 090522Z 09004KT 23/10 A3011 RMK A01 T02290095  RH  043%=      5-min Rain = 0
KLA1 090523Z 10005KT 23/10 A3011 RMK A01 T02290095  RH  043%=      5-min Rain = 0
KLA1 090524Z 09004KT 23/10 A3011 RMK A01 T02290095  RH  043%=      5-min Rain = 0
KLA1 090525Z 09004KT 23/10 A3011 RMK A01 T02290095  RH  042%=      5-min Rain = 0
KLA1 090526Z 09005KT 23/10 A3011 RMK A01 T02290095  RH  042%=      5-min Rain = 0
KLA1 090527Z 10005KT 23/10 A3011 RMK A01 T02290095  RH  042%=      5-min Rain = 0
KLA1 090528Z 10005KT 23/10 A3011 RMK A01 T02300095  RH  042%=      5-min Rain = 0
KLA1 090529Z 11006KT 23/09 A3011 RMK A01 T02300094  RH  042%=      5-min Rain = 0
KLA1 090530Z 09005KT 23/09 A3011 RMK A01 T02310094  RH  042%=      5-min Rain = 0
KLA1 090531Z 10005KT 23/09 A3011 RMK A01 T02320094  RH  042%=      5-min Rain = 0
KLA1 090532Z 09005KT 23/10 A3011 RMK A01 T02330095  RH  041%=      5-min Rain = 0
KLA1 090533Z 09004KT 23/10 A3011 RMK A01 T02330095  RH  042%=      5-min Rain = 0
KLA1 090534Z 11005KT 23/09 A3011 RMK A01 T02320094  RH  041%=      5-min Rain = 0
KLA1 090535Z 11006KT 23/09 A3011 RMK A01 T02330094  RH  041%=      5-min Rain = 0
KLA1 090536Z 10005KT 23/09 A3011 RMK A01 T02340094  RH  041%=      5-min Rain = 0
KLA1 090537Z 10005KT 23/09 A3011 RMK A01 T02340094  RH  041%=      5-min Rain = 0
KLA1 090538Z 10005KT 24/09 A3011 RMK A01 T02350094  RH  041%=      5-min Rain = 0
KLA1 090539Z 09004KT 24/09 A3011 RMK A01 T02350093  RH  041%=      5-min Rain = 0
KLA1 090540Z 10006KT 24/09 A3011 RMK A01 T02350094  RH  041%=      5-min Rain = 0
KLA1 090541Z 10006KT 24/09 A3011 RMK A01 T02350093  RH  041%=      5-min Rain = 0
KLA1 090542Z 10006KT 24/09 A3011 RMK A01 T02350093  RH  040%=      5-min Rain = 0
KLA1 090543Z 10006KT 24/09 A3011 RMK A01 T02350093  RH  040%=      5-min Rain = 0
KLA1 090544Z 10006KT 24/09 A3011 RMK A01 T02360094  RH  040%=      5-min Rain = 0
KLA1 090545Z 10005KT 24/09 A3011 RMK A01 T02350094  RH  040%=      5-min Rain = 0
KLA1 090546Z 10005KT 24/09 A3011 RMK A01 T02350093  RH  040%=      5-min Rain = 0
KLA1 090547Z 11006KT 24/09 A3011 RMK A01 T02350093  RH  040%=      5-min Rain = 0
KLA1 090548Z 10005KT 24/09 A3011 RMK A01 T02360093  RH  040%=      5-min Rain = 0
KLA1 090549Z 11005KT 24/09 A3011 RMK A01 T02360093  RH  040%=      5-min Rain = 0
KLA1 090550Z 10004KT 24/09 A3011 RMK A01 T02350093  RH  041%=      5-min Rain = 0
KLA1 090551Z 11004KT 24/09 A3011 RMK A01 T02350093  RH  041%=      5-min Rain = 0
KLA1 090552Z 11004KT 23/09 A3011 RMK A01 T02340093  RH  041%=      5-min Rain = 0
KLA1 090553Z 11005KT 23/09 A3011 RMK A01 T02330093  RH  041%=      5-min Rain = 0
KLA1 090554Z 11004KT 23/09 A3011 RMK A01 T02330093  RH  041%=      5-min Rain = 0
KLA1 090555Z 10005KT 23/09 A3011 RMK A01 T02320093  RH  041%=      5-min Rain = 0
KLA1 090556Z 11005KT 23/09 A3011 RMK A01 T02320093  RH  041%=      5-min Rain = 0
KLA1 090557Z 11005KT 23/09 A3011 RMK A01 T02310093  RH  041%=      5-min Rain = 0
KLA1 090558Z 10005KT 23/09 A3011 RMK A01 T02310093  RH  041%=      5-min Rain = 0
KLA1 090559Z 11005KT 23/09 A3011 RMK A01 T02310093  RH  041%=      5-min Rain = 0
KLA1 090600Z 10004KT 23/09 A3011 RMK A01 T02310092  RH  041%=      5-min Rain = 0
KLA1 090601Z 10004KT 23/09 A3011 RMK A01 T02310093  RH  041%=      5-min Rain = 0
KLA1 090602Z 10004KT 23/09 A3011 RMK A01 T02310093  RH  041%=      5-min Rain = 0
KLA1 090603Z 11005KT 23/09 A3011 RMK A01 T02300092  RH  041%=      5-min Rain = 0
KLA1 090604Z 09004KT 23/09 A3011 RMK A01 T02300093  RH  041%=      5-min Rain = 0
KLA1 090605Z 09004KT 23/09 A3011 RMK A01 T02300093  RH  042%=      5-min Rain = 0
KLA1 090606Z 10004KT 23/09 A3011 RMK A01 T02290093  RH  042%=      5-min Rain = 0
KLA1 090607Z 10004KT 23/09 A3011 RMK A01 T02290093  RH  042%=      5-min Rain = 0
KLA1 090608Z 10004KT 23/09 A3011 RMK A01 T02290093  RH  042%=      5-min Rain = 0
KLA1 090609Z 10005KT 23/09 A3011 RMK A01 T02280092  RH  042%=      5-min Rain = 0
KLA1 090610Z 09005KT 23/09 A3011 RMK A01 T02270092  RH  042%=      5-min Rain = 0
KLA1 090611Z 09004KT 23/09 A3011 RMK A01 T02270092  RH  042%=      5-min Rain = 0
KLA1 090612Z 10004KT 23/09 A3011 RMK A01 T02270092  RH  042%=      5-min Rain = 0
KLA1 090613Z 10004KT 23/09 A3011 RMK A01 T02270092  RH  042%=      5-min Rain = 0
KLA1 090614Z 10003KT 23/09 A3011 RMK A01 T02270092  RH  042%=      5-min Rain = 0
KLA1 090615Z 10004KT 23/09 A3011 RMK A01 T02270092  RH  042%=      5-min Rain = 0
KLA1 090616Z 10004KT 23/09 A3011 RMK A01 T02270092  RH  042%=      5-min Rain = 0
KLA1 090617Z 10004KT 23/09 A3011 RMK A01 T02270092  RH  042%=      5-min Rain = 0
KLA1 090618Z 11005KT 23/09 A3012 RMK A01 T02270091  RH  042%=      5-min Rain = 0
KLA1 090619Z 11005KT 23/09 A3012 RMK A01 T02280091  RH  042%=      5-min Rain = 0
KLA1 090620Z 11005KT 23/09 A3012 RMK A01 T02280091  RH  042%=      5-min Rain = 0
KLA1 090621Z 11003KT 23/09 A3012 RMK A01 T02280091  RH  042%=      5-min Rain = 0
KLA1 090622Z 11005KT 23/09 A3012 RMK A01 T02280091  RH  042%=      5-min Rain = 0
KLA1 090623Z 11005KT 23/09 A3012 RMK A01 T02280091  RH  042%=      5-min Rain = 0
KLA1 090624Z 09005KT 23/09 A3012 RMK A01 T02290091  RH  041%=      5-min Rain = 0
KLA1 090625Z 09004KT 23/09 A3012 RMK A01 T02300092  RH  041%=      5-min Rain = 0
KLA1 090626Z 11004KT 23/09 A3012 RMK A01 T02290092  RH  041%=      5-min Rain = 0
KLA1 090627Z 10004KT 23/09 A3012 RMK A01 T02280092  RH  042%=      5-min Rain = 0
KLA1 090628Z 10004KT 23/09 A3012 RMK A01 T02270091  RH  042%=      5-min Rain = 0
KLA1 090629Z 11005KT 23/09 A3012 RMK A01 T02270091  RH  042%=      5-min Rain = 0
KLA1 090630Z 10004KT 23/09 A3012 RMK A01 T02270091  RH  042%=      5-min Rain = 0
KLA1 090631Z 09003KT 23/09 A3012 RMK A01 T02270091  RH  042%=      5-min Rain = 0
KLA1 090632Z 10003KT 23/09 A3012 RMK A01 T02270091  RH  042%=      5-min Rain = 0
KLA1 090633Z 10004KT 23/09 A3012 RMK A01 T02270091  RH  042%=      5-min Rain = 0
KLA1 090634Z 10003KT 23/09 A3012 RMK A01 T02260091  RH  042%=      5-min Rain = 0
KLA1 090635Z 11003KT 23/09 A3012 RMK A01 T02250091  RH  042%=      5-min Rain = 0
KLA1 090636Z 10003KT 22/09 A3012 RMK A01 T02240091  RH  042%=      5-min Rain = 0
KLA1 090637Z 11002KT 22/09 A3012 RMK A01 T02240091  RH  043%=      5-min Rain = 0
KLA1 090638Z 11003KT 22/09 A3012 RMK A01 T02230091  RH  043%=      5-min Rain = 0
KLA1 090639Z 11004KT 22/09 A3012 RMK A01 T02220091  RH  043%=      5-min Rain = 0
KLA1 090640Z 12003KT 22/09 A3012 RMK A01 T02220091  RH  043%=      5-min Rain = 0
KLA1 090641Z 10003KT 22/09 A3012 RMK A01 T02220091  RH  043%=      5-min Rain = 0
KLA1 090642Z 11004KT 22/09 A3012 RMK A01 T02210091  RH  043%=      5-min Rain = 0
KLA1 090643Z 11004KT 22/09 A3012 RMK A01 T02210091  RH  044%=      5-min Rain = 0
KLA1 090644Z 11004KT 22/09 A3012 RMK A01 T02210091  RH  043%=      5-min Rain = 0
KLA1 090645Z 11004KT 22/09 A3012 RMK A01 T02200091  RH  044%=      5-min Rain = 0
KLA1 090646Z 10004KT 22/09 A3012 RMK A01 T02200091  RH  044%=      5-min Rain = 0
KLA1 090647Z 10004KT 22/09 A3012 RMK A01 T02190091  RH  044%=      5-min Rain = 0
KLA1 090648Z 11004KT 22/09 A3012 RMK A01 T02190091  RH  044%=      5-min Rain = 0
KLA1 090649Z 10004KT 22/09 A3012 RMK A01 T02190091  RH  044%=      5-min Rain = 0
KLA1 090650Z 10004KT 22/09 A3012 RMK A01 T02180091  RH  044%=      5-min Rain = 0
KLA1 090651Z 10004KT 22/09 A3012 RMK A01 T02180090  RH  044%=      5-min Rain = 0
KLA1 090652Z 10005KT 22/09 A3012 RMK A01 T02180091  RH  044%=      5-min Rain = 0
KLA1 090653Z 10004KT 22/09 A3012 RMK A01 T02180091  RH  044%=      5-min Rain = 0
KLA1 090654Z 09004KT 22/09 A3012 RMK A01 T02180091  RH  044%=      5-min Rain = 0
KLA1 090655Z 09005KT 22/09 A3012 RMK A01 T02180091  RH  044%=      5-min Rain = 0
KLA1 090656Z 09004KT 22/09 A3012 RMK A01 T02170091  RH  044%=      5-min Rain = 0
KLA1 090657Z 09005KT 22/09 A3012 RMK A01 T02160091  RH  045%=      5-min Rain = 0
KLA1 090658Z 10005KT 22/09 A3012 RMK A01 T02160090  RH  045%=      5-min Rain = 0
KLA1 090659Z 10004KT 22/09 A3012 RMK A01 T02150090  RH  045%=      5-min Rain = 0
KLA1 090700Z 10004KT 22/09 A3012 RMK A01 T02150090  RH  045%=      5-min Rain = 0
KLA1 090701Z 10005KT 22/09 A3012 RMK A01 T02160090  RH  044%=      5-min Rain = 0
KLA1 090702Z 09004KT 22/09 A3012 RMK A01 T02170090  RH  044%=      5-min Rain = 0
KLA1 090703Z 10005KT 22/09 A3012 RMK A01 T02170090  RH  044%=      5-min Rain = 0
KLA1 090704Z 11005KT 22/09 A3012 RMK A01 T02180090  RH  044%=      5-min Rain = 0
KLA1 090705Z 09004KT 22/09 A3012 RMK A01 T02190090  RH  044%=      5-min Rain = 0
KLA1 090706Z 11004KT 22/09 A3012 RMK A01 T02200090  RH  044%=      5-min Rain = 0
KLA1 090707Z 10004KT 22/09 A3012 RMK A01 T02190090  RH  044%=      5-min Rain = 0
KLA1 090708Z 10005KT 22/09 A3012 RMK A01 T02200089  RH  043%=      5-min Rain = 0
KLA1 090709Z 10004KT 22/09 A3012 RMK A01 T02200089  RH  043%=      5-min Rain = 0
KLA1 090710Z 10004KT 22/09 A3012 RMK A01 T02210090  RH  043%=      5-min Rain = 0
KLA1 090711Z 10005KT 22/09 A3012 RMK A01 T02200090  RH  043%=      5-min Rain = 0
KLA1 090712Z 10005KT 22/09 A3012 RMK A01 T02200090  RH  043%=      5-min Rain = 0
KLA1 090713Z 11005KT 22/09 A3012 RMK A01 T02200090  RH  043%=      5-min Rain = 0
KLA1 090714Z 12004KT 22/09 A3012 RMK A01 T02200089  RH  043%=      5-min Rain = 0
KLA1 090715Z 09005KT 22/09 A3012 RMK A01 T02210090  RH  043%=      5-min Rain = 0
KLA1 090716Z 10005KT 22/09 A3012 RMK A01 T02210090  RH  043%=      5-min Rain = 0
KLA1 090717Z 09005KT 22/09 A3012 RMK A01 T02200090  RH  043%=      5-min Rain = 0
KLA1 090718Z 09004KT 22/09 A3012 RMK A01 T02200090  RH  043%=      5-min Rain = 0
KLA1 090719Z 09004KT 22/09 A3012 RMK A01 T02190090  RH  044%=      5-min Rain = 0
KLA1 090720Z 08004KT 22/09 A3012 RMK A01 T02190091  RH  044%=      5-min Rain = 0
KLA1 090721Z 08004KT 22/09 A3012 RMK A01 T02180090  RH  044%=      5-min Rain = 0
KLA1 090722Z 08004KT 22/09 A3012 RMK A01 T02180090  RH  044%=      5-min Rain = 0
KLA1 090723Z 08004KT 22/09 A3012 RMK A01 T02180091  RH  044%=      5-min Rain = 0
KLA1 090724Z 08004KT 22/09 A3012 RMK A01 T02170091  RH  044%=      5-min Rain = 0
KLA1 090725Z 08004KT 22/09 A3012 RMK A01 T02170091  RH  045%=      5-min Rain = 0
KLA1 090726Z 08004KT 22/09 A3012 RMK A01 T02170091  RH  045%=      5-min Rain = 0
KLA1 090727Z 08003KT 22/09 A3012 RMK A01 T02170091  RH  045%=      5-min Rain = 0
KLA1 090728Z 08003KT 22/09 A3012 RMK A01 T02160091  RH  045%=      5-min Rain = 0
KLA1 090729Z 08002KT 22/09 A3012 RMK A01 T02160091  RH  045%=      5-min Rain = 0
KLA1 090730Z 07002KT 22/09 A3012 RMK A01 T02160092  RH  045%=      5-min Rain = 0
KLA1 090731Z 10002KT 21/10 A3012 RMK A01 T02140096  RH  047%=      5-min Rain = 0
KLA1 090732Z 10001KT 21/10 A3012 RMK A01 T02090095  RH  048%=      5-min Rain = 0
KLA1 090733Z 12000KT 21/10 A3012 RMK A01 T02060095  RH  049%=      5-min Rain = 0
KLA1 090734Z 17000KT 20/09 A3012 RMK A01 T02030094  RH  050%=      5-min Rain = 0
KLA1 090735Z 18000KT 20/09 A3012 RMK A01 T02020094  RH  050%=      5-min Rain = 0
KLA1 090736Z 09001KT 20/09 A3012 RMK A01 T02010093  RH  050%=      5-min Rain = 0
KLA1 090737Z 10003KT 20/09 A3012 RMK A01 T02000092  RH  050%=      5-min Rain = 0
KLA1 090738Z 08004KT 20/09 A3012 RMK A01 T01990092  RH  050%=      5-min Rain = 0
KLA1 090739Z 09005KT 20/09 A3012 RMK A01 T01990091  RH  050%=      5-min Rain = 0
KLA1 090740Z 09005KT 20/09 A3012 RMK A01 T02020092  RH  049%=      5-min Rain = 0
KLA1 090741Z 09004KT 21/09 A3012 RMK A01 T02060093  RH  048%=      5-min Rain = 0
KLA1 090742Z 09005KT 21/09 A3012 RMK A01 T02090092  RH  047%=      5-min Rain = 0
KLA1 090743Z 09004KT 21/09 A3012 RMK A01 T02110092  RH  047%=      5-min Rain = 0
KLA1 090744Z 09004KT 21/09 A3012 RMK A01 T02120092  RH  046%=      5-min Rain = 0
KLA1 090745Z 09004KT 21/09 A3012 RMK A01 T02120092  RH  046%=      5-min Rain = 0
KLA1 090746Z 09004KT 21/09 A3012 RMK A01 T02130092  RH  046%=      5-min Rain = 0
KLA1 090747Z 09005KT 21/09 A3012 RMK A01 T02130092  RH  046%=      5-min Rain = 0
KLA1 090748Z 08005KT 21/09 A3012 RMK A01 T02140092  RH  046%=      5-min Rain = 0
KLA1 090749Z 09004KT 21/09 A3012 RMK A01 T02140092  RH  046%=      5-min Rain = 0
KLA1 090750Z 10003KT 21/09 A3012 RMK A01 T02140093  RH  046%=      5-min Rain = 0
KLA1 090751Z 11004KT 21/09 A3012 RMK A01 T02130093  RH  046%=      5-min Rain = 0
KLA1 090752Z 10004KT 21/09 A3012 RMK A01 T02110093  RH  047%=      5-min Rain = 0
KLA1 090753Z 10004KT 21/09 A3012 RMK A01 T02080093  RH  048%=      5-min Rain = 0
KLA1 090754Z 09005KT 21/09 A3012 RMK A01 T02070092  RH  048%=      5-min Rain = 0
KLA1 090755Z 08004KT 21/09 A3012 RMK A01 T02090093  RH  047%=      5-min Rain = 0
KLA1 090756Z 08004KT 21/09 A3012 RMK A01 T02110093  RH  047%=      5-min Rain = 0
KLA1 090757Z 08004KT 21/09 A3012 RMK A01 T02120092  RH  046%=      5-min Rain = 0
KLA1 090758Z 08005KT 21/09 A3012 RMK A01 T02130092  RH  046%=      5-min Rain = 0
KLA1 090759Z 09004KT 21/09 A3012 RMK A01 T02140092  RH  046%=      5-min Rain = 0
KLA1 090800Z 10005KT 22/09 A3012 RMK A01 T02150093  RH  046%=      5-min Rain = 0
KLA1 090801Z 09006KT 22/09 A3012 RMK A01 T02150093  RH  046%=      5-min Rain = 0
KLA1 090802Z 09005KT 22/09 A3012 RMK A01 T02150092  RH  045%=      5-min Rain = 0
KLA1 090803Z 09004KT 22/09 A3012 RMK A01 T02160093  RH  045%=      5-min Rain = 0
KLA1 090804Z 09005KT 22/09 A3012 RMK A01 T02160093  RH  045%=      5-min Rain = 0
KLA1 090805Z 08005KT 22/09 A3012 RMK A01 T02160093  RH  045%=      5-min Rain = 0
KLA1 090806Z 09004KT 22/09 A3012 RMK A01 T02160093  RH  045%=      5-min Rain = 0
KLA1 090807Z 09004KT 22/09 A3012 RMK A01 T02160093  RH  045%=      5-min Rain = 0
KLA1 090808Z 09005KT 22/09 A3012 RMK A01 T02150092  RH  045%=      5-min Rain = 0
KLA1 090809Z 10004KT 22/09 A3012 RMK A01 T02150093  RH  046%=      5-min Rain = 0
KLA1 090810Z 10004KT 22/09 A3012 RMK A01 T02150093  RH  046%=      5-min Rain = 0
KLA1 090811Z 09005KT 22/09 A3012 RMK A01 T02150093  RH  046%=      5-min Rain = 0
KLA1 090812Z 09005KT 22/09 A3012 RMK A01 T02150093  RH  046%=      5-min Rain = 0
KLA1 090813Z 09004KT 22/09 A3012 RMK A01 T02150093  RH  046%=      5-min Rain = 0
KLA1 090814Z 10004KT 22/09 A3012 RMK A01 T02150093  RH  046%=      5-min Rain = 0
KLA1 090815Z 10005KT 22/09 A3012 RMK A01 T02150093  RH  046%=      5-min Rain = 0
KLA1 090816Z 09005KT 22/09 A3012 RMK A01 T02150093  RH  045%=      5-min Rain = 0
KLA1 090817Z 09005KT 22/09 A3012 RMK A01 T02150092  RH  045%=      5-min Rain = 0
KLA1 090818Z 10006KT 22/09 A3012 RMK A01 T02150093  RH  045%=      5-min Rain = 0
KLA1 090819Z 09005KT 22/09 A3012 RMK A01 T02150092  RH  045%=      5-min Rain = 0
KLA1 090820Z 09006KT 22/09 A3012 RMK A01 T02150093  RH  045%=      5-min Rain = 0
KLA1 090821Z 09006KT 22/09 A3012 RMK A01 T02150093  RH  046%=      5-min Rain = 0
KLA1 090822Z 09006KT 22/09 A3012 RMK A01 T02150093  RH  046%=      5-min Rain = 0
KLA1 090823Z 09007KT 22/09 A3012 RMK A01 T02150093  RH  046%=      5-min Rain = 0
KLA1 090824Z 09006KT 22/09 A3012 RMK A01 T02150092  RH  045%=      5-min Rain = 0
KLA1 090825Z 09006KT 22/09 A3012 RMK A01 T02150092  RH  045%=      5-min Rain = 0
KLA1 090826Z 09006KT 22/09 A3012 RMK A01 T02150093  RH  045%=      5-min Rain = 0
KLA1 090827Z 09005KT 22/09 A3012 RMK A01 T02160092  RH  045%=      5-min Rain = 0
KLA1 090828Z 09006KT 22/09 A3012 RMK A01 T02160092  RH  045%=      5-min Rain = 0
KLA1 090829Z 09007KT 22/09 A3012 RMK A01 T02160092  RH  045%=      5-min Rain = 0
KLA1 090830Z 09006KT 22/09 A3012 RMK A01 T02160093  RH  045%=      5-min Rain = 0
KLA1 090831Z 09007KT 22/09 A3012 RMK A01 T02160093  RH  045%=      5-min Rain = 0
KLA1 090832Z 09007KT 22/09 A3012 RMK A01 T02160093  RH  045%=      5-min Rain = 0
KLA1 090833Z 09007KT 22/09 A3012 RMK A01 T02160093  RH  045%=      5-min Rain = 0
KLA1 090834Z 09005KT 22/09 A3012 RMK A01 T02160093  RH  045%=      5-min Rain = 0
KLA1 090835Z 10005KT 22/09 A3012 RMK A01 T02160093  RH  045%=      5-min Rain = 0
KLA1 090836Z 09005KT 22/09 A3012 RMK A01 T02150093  RH  045%=      5-min Rain = 0
KLA1 090837Z 09006KT 22/09 A3012 RMK A01 T02150093  RH  046%=      5-min Rain = 0
KLA1 090838Z 10006KT 22/09 A3012 RMK A01 T02150093  RH  046%=      5-min Rain = 0
KLA1 090839Z 10005KT 22/09 A3012 RMK A01 T02150093  RH  046%=      5-min Rain = 0
KLA1 090840Z 10006KT 22/09 A3012 RMK A01 T02150093  RH  046%=      5-min Rain = 0
KLA1 090841Z 10006KT 22/09 A3012 RMK A01 T02150093  RH  046%=      5-min Rain = 0
KLA1 090842Z 10005KT 22/09 A3012 RMK A01 T02150093  RH  046%=      5-min Rain = 0
KLA1 090843Z 11004KT 22/09 A3012 RMK A01 T02150093  RH  046%=      5-min Rain = 0
KLA1 090844Z 10004KT 21/09 A3012 RMK A01 T02140093  RH  046%=      5-min Rain = 0
KLA1 090845Z 10005KT 21/09 A3012 RMK A01 T02140093  RH  046%=      5-min Rain = 0
KLA1 090846Z 10005KT 21/09 A3012 RMK A01 T02140093  RH  046%=      5-min Rain = 0
KLA1 090847Z 10004KT 21/09 A3012 RMK A01 T02140093  RH  046%=      5-min Rain = 0
KLA1 090848Z 11003KT 21/09 A3012 RMK A01 T02130094  RH  047%=      5-min Rain = 0
KLA1 090849Z 13001KT 21/10 A3012 RMK A01 T02100097  RH  048%=      5-min Rain = 0
KLA1 090850Z 11002KT 21/10 A3012 RMK A01 T02050098  RH  050%=      5-min Rain = 0
KLA1 090851Z 10003KT 20/10 A3012 RMK A01 T02010096  RH  051%=      5-min Rain = 0
KLA1 090852Z 10004KT 20/10 A3012 RMK A01 T02000095  RH  051%=      5-min Rain = 0
KLA1 090853Z 10004KT 20/10 A3012 RMK A01 T02000095  RH  051%=      5-min Rain = 0
KLA1 090854Z 12003KT 20/10 A3012 RMK A01 T01990096  RH  051%=      5-min Rain = 0
KLA1 090855Z 11003KT 20/10 A3012 RMK A01 T01990096  RH  051%=      5-min Rain = 0
KLA1 090856Z 09004KT 20/10 A3012 RMK A01 T01970096  RH  052%=      5-min Rain = 0
KLA1 090857Z 10004KT 20/10 A3012 RMK A01 T01970095  RH  052%=      5-min Rain = 0
KLA1 090858Z 10004KT 20/10 A3012 RMK A01 T01970095  RH  052%=      5-min Rain = 0
KLA1 090859Z 10005KT 20/10 A3012 RMK A01 T01970095  RH  052%=      5-min Rain = 0
KLA1 090900Z 10005KT 20/09 A3012 RMK A01 T01990094  RH  051%=      5-min Rain = 0
KLA1 090901Z 10005KT 20/09 A3012 RMK A01 T02040094  RH  049%=      5-min Rain = 0
KLA1 090902Z 10005KT 21/09 A3012 RMK A01 T02070094  RH  048%=      5-min Rain = 0
KLA1 090903Z 09006KT 21/09 A3012 RMK A01 T02090094  RH  048%=      5-min Rain = 0
KLA1 090904Z 09005KT 21/09 A3012 RMK A01 T02100094  RH  047%=      5-min Rain = 0
KLA1 090905Z 10006KT 21/09 A3012 RMK A01 T02100094  RH  047%=      5-min Rain = 0
KLA1 090906Z 09006KT 21/09 A3012 RMK A01 T02110094  RH  047%=      5-min Rain = 0
KLA1 090907Z 10005KT 21/09 A3012 RMK A01 T02110094  RH  047%=      5-min Rain = 0
KLA1 090908Z 10006KT 21/09 A3012 RMK A01 T02110094  RH  047%=      5-min Rain = 0
KLA1 090909Z 10005KT 21/09 A3012 RMK A01 T02110094  RH  047%=      5-min Rain = 0
KLA1 090910Z 09006KT 21/09 A3012 RMK A01 T02110094  RH  047%=      5-min Rain = 0
KLA1 090911Z 09005KT 21/09 A3012 RMK A01 T02110094  RH  047%=      5-min Rain = 0
KLA1 090912Z 09006KT 21/09 A3012 RMK A01 T02110094  RH  047%=      5-min Rain = 0
KLA1 090913Z 09005KT 21/09 A3012 RMK A01 T02110094  RH  047%=      5-min Rain = 0
KLA1 090914Z 09005KT 21/09 A3012 RMK A01 T02100094  RH  047%=      5-min Rain = 0
KLA1 090915Z 10005KT 21/09 A3012 RMK A01 T02110094  RH  047%=      5-min Rain = 0
KLA1 090916Z 10005KT 21/09 A3012 RMK A01 T02110094  RH  047%=      5-min Rain = 0
KLA1 090917Z 09004KT 21/09 A3012 RMK A01 T02100094  RH  047%=      5-min Rain = 0
KLA1 090918Z 11005KT 21/09 A3013 RMK A01 T02100094  RH  048%=      5-min Rain = 0
KLA1 090919Z 09005KT 21/09 A3013 RMK A01 T02100094  RH  048%=      5-min Rain = 0
KLA1 090920Z 09006KT 21/09 A3013 RMK A01 T02100094  RH  048%=      5-min Rain = 0
KLA1 090921Z 09006KT 21/10 A3013 RMK A01 T02100095  RH  048%=      5-min Rain = 0
KLA1 090922Z 10005KT 21/10 A3013 RMK A01 T02090095  RH  048%=      5-min Rain = 0
KLA1 090923Z 11004KT 21/09 A3013 RMK A01 T02090094  RH  048%=      5-min Rain = 0
KLA1 090924Z 10004KT 21/10 A3013 RMK A01 T02090095  RH  048%=      5-min Rain = 0
KLA1 090925Z 10004KT 21/10 A3013 RMK A01 T02080095  RH  048%=      5-min Rain = 0
KLA1 090926Z 10004KT 21/10 A3013 RMK A01 T02080095  RH  048%=      5-min Rain = 0
KLA1 090927Z 10005KT 21/10 A3013 RMK A01 T02070095  RH  048%=      5-min Rain = 0
KLA1 090928Z 09005KT 21/10 A3013 RMK A01 T02080095  RH  048%=      5-min Rain = 0
KLA1 090929Z 09004KT 21/10 A3013 RMK A01 T02070095  RH  049%=      5-min Rain = 0
KLA1 090930Z 09004KT 21/10 A3013 RMK A01 T02070095  RH  049%=      5-min Rain = 0
KLA1 090931Z 09005KT 21/10 A3013 RMK A01 T02070095  RH  049%=      5-min Rain = 0
KLA1 090932Z 10006KT 21/10 A3013 RMK A01 T02060095  RH  049%=      5-min Rain = 0
KLA1 090933Z 10004KT 21/10 A3013 RMK A01 T02060095  RH  049%=      5-min Rain = 0
KLA1 090934Z 10006KT 21/10 A3013 RMK A01 T02060095  RH  049%=      5-min Rain = 0
KLA1 090935Z 10006KT 21/09 A3013 RMK A01 T02050094  RH  049%=      5-min Rain = 0
KLA1 090936Z 10005KT 21/09 A3013 RMK A01 T02050094  RH  049%=      5-min Rain = 0
KLA1 090937Z 10005KT 21/10 A3013 RMK A01 T02050095  RH  049%=      5-min Rain = 0
KLA1 090938Z 10006KT 21/10 A3013 RMK A01 T02050095  RH  049%=      5-min Rain = 0
KLA1 090939Z 10005KT 20/10 A3013 RMK A01 T02040095  RH  049%=      5-min Rain = 0
KLA1 090940Z 09007KT 20/10 A3013 RMK A01 T02040095  RH  049%=      5-min Rain = 0
KLA1 090941Z 10007KT 20/09 A3013 RMK A01 T02040094  RH  049%=      5-min Rain = 0
KLA1 090942Z 10006KT 20/09 A3013 RMK A01 T02040094  RH  049%=      5-min Rain = 0
KLA1 090943Z 10006KT 20/09 A3013 RMK A01 T02040094  RH  049%=      5-min Rain = 0
KLA1 090944Z 09005KT 20/09 A3013 RMK A01 T02040094  RH  049%=      5-min Rain = 0
KLA1 090945Z 10006KT 20/10 A3013 RMK A01 T02030095  RH  050%=      5-min Rain = 0
KLA1 090946Z 09005KT 20/09 A3013 RMK A01 T02030094  RH  050%=      5-min Rain = 0
KLA1 090947Z 10006KT 20/09 A3013 RMK A01 T02020094  RH  050%=      5-min Rain = 0
KLA1 090948Z 09005KT 20/09 A3013 RMK A01 T02030094  RH  050%=      5-min Rain = 0
KLA1 090949Z 09006KT 20/09 A3013 RMK A01 T02020094  RH  050%=      5-min Rain = 0
KLA1 090950Z 09006KT 20/10 A3013 RMK A01 T02020095  RH  050%=      5-min Rain = 0
KLA1 090951Z 09005KT 20/09 A3013 RMK A01 T02010094  RH  050%=      5-min Rain = 0
KLA1 090952Z 09005KT 20/10 A3013 RMK A01 T02010095  RH  050%=      5-min Rain = 0
KLA1 090953Z 09005KT 20/10 A3013 RMK A01 T02000095  RH  051%=      5-min Rain = 0
KLA1 090954Z 10006KT 20/09 A3013 RMK A01 T01990094  RH  051%=      5-min Rain = 0
KLA1 090955Z 09006KT 20/10 A3013 RMK A01 T02000095  RH  051%=      5-min Rain = 0
KLA1 090956Z 10006KT 20/09 A3014 RMK A01 T01990094  RH  051%=      5-min Rain = 0
KLA1 090957Z 09005KT 20/09 A3014 RMK A01 T02000094  RH  051%=      5-min Rain = 0
KLA1 090958Z 11005KT 20/09 A3014 RMK A01 T02000094  RH  051%=      5-min Rain = 0
KLA1 090959Z 10005KT 20/09 A3014 RMK A01 T02000094  RH  050%=      5-min Rain = 0
KLA1 091000Z 10005KT 20/09 A3014 RMK A01 T02010094  RH  050%=      5-min Rain = 0
KLA1 091001Z 10005KT 20/09 A3014 RMK A01 T02010094  RH  050%=      5-min Rain = 0
KLA1 091002Z 11006KT 20/09 A3014 RMK A01 T02010094  RH  050%=      5-min Rain = 0
KLA1 091003Z 10006KT 20/10 A3014 RMK A01 T02010095  RH  050%=      5-min Rain = 0
KLA1 091004Z 10007KT 20/10 A3014 RMK A01 T02020095  RH  050%=      5-min Rain = 0
KLA1 091005Z 11006KT 20/10 A3014 RMK A01 T02030095  RH  050%=      5-min Rain = 0
KLA1 091006Z 09005KT 20/10 A3014 RMK A01 T02040095  RH  050%=      5-min Rain = 0
KLA1 091007Z 12006KT 20/10 A3014 RMK A01 T02030095  RH  050%=      5-min Rain = 0
KLA1 091008Z 11007KT 20/10 A3014 RMK A01 T02030095  RH  050%=      5-min Rain = 0
KLA1 091009Z 10006KT 20/10 A3014 RMK A01 T02030095  RH  050%=      5-min Rain = 0
KLA1 091010Z 10006KT 20/10 A3014 RMK A01 T02040095  RH  050%=      5-min Rain = 0
KLA1 091011Z 10005KT 20/10 A3014 RMK A01 T02040095  RH  050%=      5-min Rain = 0
KLA1 091012Z 10007KT 20/10 A3014 RMK A01 T02030095  RH  050%=      5-min Rain = 0
KLA1 091013Z 11006KT 20/10 A3014 RMK A01 T02030095  RH  050%=      5-min Rain = 0
KLA1 091014Z 10006KT 20/10 A3014 RMK A01 T02030095  RH  050%=      5-min Rain = 0
KLA1 091015Z 10006KT 20/10 A3014 RMK A01 T02030095  RH  050%=      5-min Rain = 0
KLA1 091016Z 11007KT 20/10 A3014 RMK A01 T02020095  RH  050%=      5-min Rain = 0
KLA1 091017Z 10005KT 20/10 A3014 RMK A01 T02020095  RH  050%=      5-min Rain = 0
KLA1 091018Z 10006KT 20/10 A3014 RMK A01 T02020095  RH  050%=      5-min Rain = 0
KLA1 091019Z 10006KT 20/10 A3014 RMK A01 T02020095  RH  050%=      5-min Rain = 0
KLA1 091020Z 11005KT 20/10 A3014 RMK A01 T02010095  RH  051%=      5-min Rain = 0
KLA1 091021Z 10006KT 20/10 A3014 RMK A01 T02000096  RH  051%=      5-min Rain = 0
KLA1 091022Z 10006KT 20/10 A3014 RMK A01 T02000095  RH  051%=      5-min Rain = 0
KLA1 091023Z 10006KT 20/10 A3014 RMK A01 T02000096  RH  051%=      5-min Rain = 0
KLA1 091024Z 10006KT 20/10 A3014 RMK A01 T02000096  RH  051%=      5-min Rain = 0
KLA1 091025Z 11005KT 20/10 A3014 RMK A01 T01990095  RH  051%=      5-min Rain = 0
KLA1 091026Z 10005KT 20/10 A3014 RMK A01 T01980095  RH  051%=      5-min Rain = 0
KLA1 091027Z 10006KT 20/10 A3014 RMK A01 T01980095  RH  052%=      5-min Rain = 0
KLA1 091028Z 11006KT 20/10 A3014 RMK A01 T01980096  RH  052%=      5-min Rain = 0
KLA1 091029Z 10006KT 20/10 A3014 RMK A01 T01980095  RH  052%=      5-min Rain = 0
KLA1 091030Z 10005KT 20/10 A3014 RMK A01 T01980095  RH  051%=      5-min Rain = 0
KLA1 091031Z 09007KT 20/10 A3014 RMK A01 T01990096  RH  051%=      5-min Rain = 0
KLA1 091032Z 10006KT 20/10 A3014 RMK A01 T01990095  RH  051%=      5-min Rain = 0
KLA1 091033Z 10006KT 20/10 A3014 RMK A01 T01990096  RH  051%=      5-min Rain = 0
KLA1 091034Z 10006KT 20/10 A3014 RMK A01 T01990096  RH  051%=      5-min Rain = 0
KLA1 091035Z 10007KT 20/10 A3014 RMK A01 T01990096  RH  051%=      5-min Rain = 0
KLA1 091036Z 10006KT 20/10 A3014 RMK A01 T01990096  RH  051%=      5-min Rain = 0
KLA1 091037Z 11007KT 20/10 A3014 RMK A01 T01990096  RH  051%=      5-min Rain = 0
KLA1 091038Z 10006KT 20/10 A3014 RMK A01 T02000096  RH  051%=      5-min Rain = 0
KLA1 091039Z 10008KT 20/10 A3014 RMK A01 T02000096  RH  051%=      5-min Rain = 0
KLA1 091040Z 10007KT 20/10 A3014 RMK A01 T02000096  RH  051%=      5-min Rain = 0
KLA1 091041Z 10007KT 20/10 A3014 RMK A01 T02000096  RH  051%=      5-min Rain = 0
KLA1 091042Z 10006KT 20/10 A3014 RMK A01 T02000096  RH  051%=      5-min Rain = 0
KLA1 091043Z 11006KT 20/10 A3014 RMK A01 T02000096  RH  051%=      5-min Rain = 0
KLA1 091044Z 10006KT 20/10 A3014 RMK A01 T02000097  RH  051%=      5-min Rain = 0
KLA1 091045Z 09006KT 20/10 A3014 RMK A01 T02000097  RH  052%=      5-min Rain = 0
KLA1 091046Z 11008KT 20/10 A3014 RMK A01 T01990097  RH  052%=      5-min Rain = 0
KLA1 091047Z 10006KT 20/10 A3014 RMK A01 T02000098  RH  052%=      5-min Rain = 0
KLA1 091048Z 10006KT 20/10 A3014 RMK A01 T02010098  RH  051%=      5-min Rain = 0
KLA1 091049Z 10007KT 20/10 A3014 RMK A01 T02000097  RH  052%=      5-min Rain = 0
KLA1 091050Z 10007KT 20/10 A3014 RMK A01 T02000098  RH  052%=      5-min Rain = 0
KLA1 091051Z 10007KT 20/10 A3014 RMK A01 T02000097  RH  052%=      5-min Rain = 0
KLA1 091052Z 11007KT 20/10 A3014 RMK A01 T02000097  RH  052%=      5-min Rain = 0
KLA1 091053Z 11008KT 20/10 A3014 RMK A01 T01990097  RH  052%=      5-min Rain = 0
KLA1 091054Z 11008KT 20/10 A3014 RMK A01 T01990097  RH  052%=      5-min Rain = 0
KLA1 091055Z 11007KT 20/10 A3014 RMK A01 T01990097  RH  052%=      5-min Rain = 0
KLA1 091056Z 10008KT 20/10 A3014 RMK A01 T01990097  RH  052%=      5-min Rain = 0
KLA1 091057Z 11007KT 20/10 A3014 RMK A01 T01990097  RH  052%=      5-min Rain = 0
KLA1 091058Z 10008KT 20/10 A3014 RMK A01 T01980097  RH  052%=      5-min Rain = 0
KLA1 091059Z 10008KT 20/10 A3014 RMK A01 T01990097  RH  052%=      5-min Rain = 0
KLA1 091100Z 10009KT 20/10 A3014 RMK A01 T01990097  RH  052%=      5-min Rain = 0
KLA1 091101Z 11008KT 20/10 A3014 RMK A01 T01990097  RH  052%=      5-min Rain = 0
KLA1 091102Z 11009KT 20/10 A3014 RMK A01 T01990097  RH  052%=      5-min Rain = 0
KLA1 091103Z 11007KT 20/10 A3014 RMK A01 T01990097  RH  052%=      5-min Rain = 0
KLA1 091104Z 10008KT 20/10 A3014 RMK A01 T01990097  RH  052%=      5-min Rain = 0
KLA1 091105Z 10006KT 20/10 A3014 RMK A01 T01990097  RH  052%=      5-min Rain = 0
KLA1 091106Z 11007KT 20/10 A3014 RMK A01 T01990098  RH  052%=      5-min Rain = 0
KLA1 091107Z 11008KT 20/10 A3014 RMK A01 T01980097  RH  052%=      5-min Rain = 0
KLA1 091108Z 10007KT 20/10 A3014 RMK A01 T01980097  RH  052%=      5-min Rain = 0
KLA1 091109Z 11007KT 20/10 A3014 RMK A01 T01980097  RH  052%=      5-min Rain = 0
KLA1 091110Z 11008KT 20/10 A3014 RMK A01 T01980097  RH  052%=      5-min Rain = 0
KLA1 091111Z 11007KT 20/10 A3014 RMK A01 T01970097  RH  052%=      5-min Rain = 0
KLA1 091112Z 10006KT 20/10 A3014 RMK A01 T01970097  RH  052%=      5-min Rain = 0
KLA1 091113Z 11007KT 20/10 A3014 RMK A01 T01970097  RH  052%=      5-min Rain = 0
KLA1 091114Z 11007KT 20/10 A3014 RMK A01 T01960097  RH  053%=      5-min Rain = 0
KLA1 091115Z 11007KT 20/10 A3014 RMK A01 T01970098  RH  053%=      5-min Rain = 0
KLA1 091116Z 11007KT 20/10 A3014 RMK A01 T01960098  RH  053%=      5-min Rain = 0
KLA1 091117Z 11007KT 20/10 A3014 RMK A01 T01960098  RH  053%=      5-min Rain = 0
KLA1 091118Z 11006KT 20/10 A3014 RMK A01 T01960098  RH  053%=      5-min Rain = 0
KLA1 091119Z 11006KT 20/10 A3014 RMK A01 T01960098  RH  053%=      5-min Rain = 0
KLA1 091120Z 11008KT 20/10 A3014 RMK A01 T01950098  RH  053%=      5-min Rain = 0
KLA1 091121Z 11007KT 20/10 A3014 RMK A01 T01950098  RH  053%=      5-min Rain = 0
KLA1 091122Z 11007KT 20/10 A3014 RMK A01 T01950098  RH  053%=      5-min Rain = 0
KLA1 091123Z 11007KT 20/10 A3014 RMK A01 T01950098  RH  054%=      5-min Rain = 0
KLA1 091124Z 11006KT 20/10 A3014 RMK A01 T01950099  RH  054%=      5-min Rain = 0
KLA1 091125Z 10007KT 20/10 A3015 RMK A01 T01950099  RH  054%=      5-min Rain = 0
KLA1 091126Z 11008KT 20/10 A3015 RMK A01 T01950099  RH  054%=      5-min Rain = 0
KLA1 091127Z 10006KT 20/10 A3015 RMK A01 T01950099  RH  054%=      5-min Rain = 0
KLA1 091128Z 10006KT 20/10 A3015 RMK A01 T01950099  RH  054%=      5-min Rain = 0
KLA1 091129Z 10006KT 19/10 A3015 RMK A01 T01940099  RH  054%=      5-min Rain = 0
KLA1 091130Z 10006KT 19/10 A3015 RMK A01 T01940099  RH  054%=      5-min Rain = 0
KLA1 091131Z 11006KT 19/10 A3015 RMK A01 T01940099  RH  054%=      5-min Rain = 0
KLA1 091132Z 10007KT 19/10 A3015 RMK A01 T01930099  RH  054%=      5-min Rain = 0
KLA1 091133Z 10006KT 19/10 A3015 RMK A01 T01930099  RH  054%=      5-min Rain = 0
KLA1 091134Z 09006KT 19/10 A3015 RMK A01 T01940099  RH  054%=      5-min Rain = 0
KLA1 091135Z 10006KT 19/10 A3015 RMK A01 T01930100  RH  055%=      5-min Rain = 0
KLA1 091136Z 11006KT 19/10 A3015 RMK A01 T01930100  RH  055%=      5-min Rain = 0
KLA1 091137Z 10006KT 19/10 A3015 RMK A01 T01930100  RH  055%=      5-min Rain = 0
KLA1 091138Z 11009KT 19/10 A3015 RMK A01 T01930100  RH  055%=      5-min Rain = 0
KLA1 091139Z 10008KT 19/10 A3015 RMK A01 T01930100  RH  055%=      5-min Rain = 0
KLA1 091140Z 10007KT 19/10 A3015 RMK A01 T01930101  RH  055%=      5-min Rain = 0
KLA1 091141Z 11008KT 19/10 A3015 RMK A01 T01940102  RH  055%=      5-min Rain = 0
KLA1 091142Z 10007KT 19/10 A3015 RMK A01 T01940102  RH  055%=      5-min Rain = 0
KLA1 091143Z 11007KT 19/10 A3015 RMK A01 T01940102  RH  055%=      5-min Rain = 0
KLA1 091144Z 11008KT 19/10 A3015 RMK A01 T01930102  RH  055%=      5-min Rain = 0
KLA1 091145Z 11008KT 19/10 A3015 RMK A01 T01930103  RH  056%=      5-min Rain = 0
KLA1 091146Z 10008KT 19/10 A3015 RMK A01 T01940103  RH  056%=      5-min Rain = 0
KLA1 091147Z 11007KT 19/10 A3015 RMK A01 T01940104  RH  056%=      5-min Rain = 0
KLA1 091148Z 11007KT 19/10 A3015 RMK A01 T01940104  RH  056%=      5-min Rain = 0
KLA1 091149Z 11008KT 19/10 A3015 RMK A01 T01940104  RH  056%=      5-min Rain = 0
KLA1 091150Z 11008KT 19/11 A3015 RMK A01 T01940105  RH  056%=      5-min Rain = 0
KLA1 091151Z 11009KT 19/11 A3015 RMK A01 T01940105  RH  056%=      5-min Rain = 0
KLA1 091152Z 11008KT 19/11 A3015 RMK A01 T01940105  RH  056%=      5-min Rain = 0
KLA1 091153Z 11006KT 19/11 A3015 RMK A01 T01940105  RH  056%=      5-min Rain = 0
KLA1 091154Z 11007KT 19/11 A3015 RMK A01 T01940105  RH  056%=      5-min Rain = 0
KLA1 091155Z 11007KT 19/11 A3015 RMK A01 T01940105  RH  056%=      5-min Rain = 0
KLA1 091156Z 11006KT 19/11 A3016 RMK A01 T01940106  RH  057%=      5-min Rain = 0
KLA1 091157Z 11006KT 19/11 A3016 RMK A01 T01940106  RH  057%=      5-min Rain = 0
KLA1 091158Z 11007KT 19/11 A3016 RMK A01 T01940106  RH  057%=      5-min Rain = 0
KLA1 091159Z 11007KT 19/11 A3016 RMK A01 T01940106  RH  057%=      5-min Rain = 0
KLA1 091200Z 11007KT 20/11 A3016 RMK A01 T01950106  RH  057%=      5-min Rain = 0
KLA1 091201Z 11007KT 20/11 A3016 RMK A01 T01950106  RH  057%=      5-min Rain = 0
KLA1 091202Z 11007KT 20/11 A3016 RMK A01 T01950107  RH  057%=      5-min Rain = 0
KLA1 091203Z 11006KT 20/11 A3016 RMK A01 T01950107  RH  057%=      5-min Rain = 0
KLA1 091204Z 12007KT 19/11 A3016 RMK A01 T01940107  RH  057%=      5-min Rain = 0
KLA1 091205Z 12006KT 20/11 A3016 RMK A01 T01950107  RH  057%=      5-min Rain = 0
KLA1 091206Z 11009KT 19/11 A3016 RMK A01 T01940107  RH  057%=      5-min Rain = 0
KLA1 091207Z 12008KT 20/11 A3016 RMK A01 T01950108  RH  057%=      5-min Rain = 0
KLA1 091208Z 12009KT 20/11 A3016 RMK A01 T01950108  RH  057%=      5-min Rain = 0
KLA1 091209Z 12007KT 19/11 A3016 RMK A01 T01940108  RH  057%=      5-min Rain = 0
KLA1 091210Z 12006KT 20/11 A3016 RMK A01 T01950108  RH  057%=      5-min Rain = 0
KLA1 091211Z 12007KT 20/11 A3016 RMK A01 T01950108  RH  057%=      5-min Rain = 0
KLA1 091212Z 11007KT 20/11 A3016 RMK A01 T01950108  RH  057%=      5-min Rain = 0
KLA1 091213Z 11007KT 20/11 A3016 RMK A01 T01950108  RH  057%=      5-min Rain = 0
KLA1 091214Z 11009KT 20/11 A3017 RMK A01 T01950108  RH  057%=      5-min Rain = 0
KLA1 091215Z 11008KT 20/11 A3017 RMK A01 T01950108  RH  057%=      5-min Rain = 0
KLA1 091216Z 11006KT 20/11 A3017 RMK A01 T01960109  RH  057%=      5-min Rain = 0
KLA1 091217Z 12007KT 20/11 A3017 RMK A01 T01960109  RH  057%=      5-min Rain = 0
KLA1 091218Z 12007KT 20/11 A3017 RMK A01 T01960109  RH  057%=      5-min Rain = 0
KLA1 091219Z 12007KT 20/11 A3017 RMK A01 T01960109  RH  057%=      5-min Rain = 0
KLA1 091220Z 12007KT 20/11 A3017 RMK A01 T01960109  RH  057%=      5-min Rain = 0
KLA1 091221Z 12007KT 20/11 A3017 RMK A01 T01960110  RH  057%=      5-min Rain = 0
KLA1 091222Z 12006KT 20/11 A3017 RMK A01 T01960110  RH  058%=      5-min Rain = 0
KLA1 091223Z 12007KT 20/11 A3017 RMK A01 T01960110  RH  058%=      5-min Rain = 0
KLA1 091224Z 12007KT 20/11 A3017 RMK A01 T01960110  RH  058%=      5-min Rain = 0
KLA1 091225Z 12008KT 20/11 A3017 RMK A01 T01960110  RH  058%=      5-min Rain = 0
KLA1 091226Z 12007KT 20/11 A3017 RMK A01 T01960111  RH  058%=      5-min Rain = 0
KLA1 091227Z 12007KT 20/11 A3017 RMK A01 T01960110  RH  058%=      5-min Rain = 0
KLA1 091228Z 12008KT 20/11 A3017 RMK A01 T01950111  RH  058%=      5-min Rain = 0
KLA1 091229Z 12006KT 20/11 A3017 RMK A01 T01960111  RH  058%=      5-min Rain = 0
KLA1 091230Z 12008KT 20/11 A3017 RMK A01 T01960111  RH  058%=      5-min Rain = 0
KLA1 091231Z 12008KT 20/11 A3017 RMK A01 T01950111  RH  058%=      5-min Rain = 0
KLA1 091232Z 12006KT 20/11 A3017 RMK A01 T01950111  RH  058%=      5-min Rain = 0
KLA1 091233Z 12008KT 20/11 A3017 RMK A01 T01950112  RH  058%=      5-min Rain = 0
KLA1 091234Z 12007KT 20/11 A3017 RMK A01 T01950112  RH  058%=      5-min Rain = 0
KLA1 091235Z 12008KT 20/11 A3017 RMK A01 T01950112  RH  059%=      5-min Rain = 0
KLA1 091236Z 12008KT 20/11 A3017 RMK A01 T01960113  RH  059%=      5-min Rain = 0
KLA1 091237Z 12010KT 20/11 A3017 RMK A01 T01950113  RH  059%=      5-min Rain = 0
KLA1 091238Z 12009KT 20/11 A3017 RMK A01 T01960113  RH  059%=      5-min Rain = 0
KLA1 091239Z 11008KT 20/11 A3017 RMK A01 T01960113  RH  059%=      5-min Rain = 0
KLA1 091240Z 11007KT 20/11 A3017 RMK A01 T01960112  RH  058%=      5-min Rain = 0
KLA1 091241Z 12009KT 20/11 A3017 RMK A01 T01970113  RH  059%=      5-min Rain = 0
KLA1 091242Z 11009KT 20/11 A3017 RMK A01 T01970113  RH  059%=      5-min Rain = 0
KLA1 091243Z 11010KT 20/11 A3018 RMK A01 T01960113  RH  059%=      5-min Rain = 0
KLA1 091244Z 11007KT 20/11 A3018 RMK A01 T01960113  RH  059%=      5-min Rain = 0
KLA1 091245Z 11006KT 20/11 A3018 RMK A01 T01960113  RH  059%=      5-min Rain = 0
KLA1 091246Z 11008KT 20/11 A3018 RMK A01 T01960113  RH  059%=      5-min Rain = 0
KLA1 091247Z 11007KT 20/11 A3018 RMK A01 T01960113  RH  059%=      5-min Rain = 0
KLA1 091248Z 11008KT 20/11 A3018 RMK A01 T01960113  RH  059%=      5-min Rain = 0
KLA1 091249Z 12007KT 20/11 A3018 RMK A01 T01960113  RH  059%=      5-min Rain = 0
KLA1 091250Z 11007KT 20/11 A3018 RMK A01 T01960113  RH  059%=      5-min Rain = 0
KLA1 091251Z 11007KT 20/11 A3018 RMK A01 T01960113  RH  059%=      5-min Rain = 0
KLA1 091252Z 12007KT 20/11 A3018 RMK A01 T01960114  RH  059%=      5-min Rain = 0
KLA1 091253Z 11007KT 20/11 A3018 RMK A01 T01960114  RH  059%=      5-min Rain = 0
KLA1 091254Z 11009KT 20/11 A3018 RMK A01 T01960114  RH  059%=      5-min Rain = 0
KLA1 091255Z 11009KT 20/12 A3018 RMK A01 T01970115  RH  059%=      5-min Rain = 0
KLA1 091256Z 11009KT 20/12 A3018 RMK A01 T01970115  RH  059%=      5-min Rain = 0
KLA1 091257Z 11008KT 20/12 A3018 RMK A01 T01970115  RH  059%=      5-min Rain = 0
KLA1 091258Z 11005KT 20/12 A3018 RMK A01 T01970115  RH  059%=      5-min Rain = 0
KLA1 091259Z 12006KT 20/12 A3018 RMK A01 T01970115  RH  059%=      5-min Rain = 0
KLA1 091300Z 11007KT 20/12 A3018 RMK A01 T01970116  RH  060%=      5-min Rain = 0
KLA1 091301Z 12007KT 20/12 A3018 RMK A01 T01970116  RH  060%=      5-min Rain = 0
KLA1 091302Z 12008KT 20/12 A3018 RMK A01 T01970116  RH  060%=      5-min Rain = 0
KLA1 091303Z 11009KT 20/12 A3018 RMK A01 T01960116  RH  060%=      5-min Rain = 0
KLA1 091304Z 12009KT 20/12 A3018 RMK A01 T01960116  RH  060%=      5-min Rain = 0
KLA1 091305Z 11008KT 20/12 A3018 RMK A01 T01960116  RH  060%=      5-min Rain = 0
KLA1 091306Z 10007KT 20/12 A3018 RMK A01 T01960116  RH  060%=      5-min Rain = 0
KLA1 091307Z 11008KT 20/12 A3018 RMK A01 T01960116  RH  060%=      5-min Rain = 0
KLA1 091308Z 11008KT 20/12 A3018 RMK A01 T01960116  RH  060%=      5-min Rain = 0
KLA1 091309Z 11009KT 20/12 A3018 RMK A01 T01970117  RH  060%=      5-min Rain = 0
KLA1 091310Z 12009KT 20/12 A3018 RMK A01 T01980117  RH  060%=      5-min Rain = 0
KLA1 091311Z 11008KT 20/12 A3018 RMK A01 T01980117  RH  059%=      5-min Rain = 0
KLA1 091312Z 12009KT 20/12 A3018 RMK A01 T01980117  RH  060%=      5-min Rain = 0
KLA1 091313Z 11008KT 20/12 A3018 RMK A01 T01980117  RH  060%=      5-min Rain = 0
KLA1 091314Z 11009KT 20/12 A3019 RMK A01 T01980117  RH  060%=      5-min Rain = 0
KLA1 091315Z 11010KT 20/12 A3019 RMK A01 T01980118  RH  060%=      5-min Rain = 0
KLA1 091316Z 10009KT 20/12 A3019 RMK A01 T01980117  RH  060%=      5-min Rain = 0
KLA1 091317Z 11009KT 20/12 A3019 RMK A01 T01980117  RH  060%=      5-min Rain = 0
KLA1 091318Z 10010KT 20/12 A3019 RMK A01 T01980117  RH  060%=      5-min Rain = 0
KLA1 091319Z 11010KT 20/12 A3019 RMK A01 T01980117  RH  060%=      5-min Rain = 0
KLA1 091320Z 11008KT 20/12 A3019 RMK A01 T01980118  RH  060%=      5-min Rain = 0
KLA1 091321Z 11008KT 20/12 A3019 RMK A01 T01980118  RH  060%=      5-min Rain = 0
KLA1 091322Z 12008KT 20/12 A3019 RMK A01 T01980118  RH  060%=      5-min Rain = 0
KLA1 091323Z 12010KT 20/12 A3019 RMK A01 T01980118  RH  060%=      5-min Rain = 0
KLA1 091324Z 12010KT 20/12 A3019 RMK A01 T01990118  RH  060%=      5-min Rain = 0
KLA1 091325Z 12010KT 20/12 A3019 RMK A01 T01990118  RH  060%=      5-min Rain = 0
KLA1 091326Z 12008KT 20/12 A3019 RMK A01 T02000119  RH  059%=      5-min Rain = 0
KLA1 091327Z 11007KT 20/12 A3019 RMK A01 T02010119  RH  059%=      5-min Rain = 0
KLA1 091328Z 11008KT 20/12 A3019 RMK A01 T02020119  RH  059%=      5-min Rain = 0
KLA1 091329Z 11007KT 20/12 A3019 RMK A01 T02020119  RH  059%=      5-min Rain = 0
KLA1 091330Z 12008KT 20/12 A3019 RMK A01 T02020120  RH  059%=      5-min Rain = 0
KLA1 091331Z 11009KT 20/12 A3019 RMK A01 T02020120  RH  059%=      5-min Rain = 0
KLA1 091332Z 11009KT 20/12 A3019 RMK A01 T02030120  RH  059%=      5-min Rain = 0
KLA1 091333Z 11009KT 20/12 A3019 RMK A01 T02040121  RH  059%=      5-min Rain = 0
KLA1 091334Z 12012KT 20/12 A3019 RMK A01 T02040121  RH  059%=      5-min Rain = 0
KLA1 091335Z 12010KT 20/12 A3019 RMK A01 T02030120  RH  059%=      5-min Rain = 0
KLA1 091336Z 12007KT 20/12 A3019 RMK A01 T02030120  RH  059%=      5-min Rain = 0
KLA1 091337Z 12010KT 20/12 A3019 RMK A01 T02030121  RH  059%=      5-min Rain = 0
KLA1 091338Z 12009KT 20/12 A3019 RMK A01 T02030121  RH  059%=      5-min Rain = 0
KLA1 091339Z 12007KT 20/12 A3019 RMK A01 T02030121  RH  059%=      5-min Rain = 0
KLA1 091340Z 11010KT 20/12 A3019 RMK A01 T02030121  RH  059%=      5-min Rain = 0
KLA1 091341Z 12010KT 20/12 A3019 RMK A01 T02030121  RH  059%=      5-min Rain = 0
KLA1 091342Z 12012KT 20/12 A3019 RMK A01 T02040121  RH  059%=      5-min Rain = 0
KLA1 091343Z 12012KT 20/12 A3019 RMK A01 T02040120  RH  059%=      5-min Rain = 0
KLA1 091344Z 11011KT 20/12 A3019 RMK A01 T02030121  RH  059%=      5-min Rain = 0
KLA1 091345Z 11011KT 20/12 A3019 RMK A01 T02030121  RH  059%=      5-min Rain = 0
KLA1 091346Z 12008KT 20/12 A3019 RMK A01 T02020121  RH  060%=      5-min Rain = 0
KLA1 091347Z 11009KT 20/12 A3019 RMK A01 T02020122  RH  060%=      5-min Rain = 0
KLA1 091348Z 12011KT 20/12 A3019 RMK A01 T02020122  RH  060%=      5-min Rain = 0
KLA1 091349Z 12011KT 20/12 A3019 RMK A01 T02020121  RH  060%=      5-min Rain = 0
KLA1 091350Z 12009KT 20/12 A3019 RMK A01 T02010121  RH  060%=      5-min Rain = 0
KLA1 091351Z 12008KT 20/12 A3019 RMK A01 T02010121  RH  060%=      5-min Rain = 0
KLA1 091352Z 12008KT 20/12 A3019 RMK A01 T02010122  RH  060%=      5-min Rain = 0
KLA1 091353Z 12009KT 20/12 A302 RMK A01 T02010122  RH  060%=      5-min Rain = 0
KLA1 091354Z 12010KT 20/12 A302 RMK A01 T02010122  RH  060%=      5-min Rain = 0
KLA1 091355Z 13008KT 20/12 A302 RMK A01 T02010122  RH  060%=      5-min Rain = 0
KLA1 091356Z 12008KT 20/12 A302 RMK A01 T02010122  RH  060%=      5-min Rain = 0
KLA1 091357Z 12008KT 20/12 A302 RMK A01 T02020122  RH  060%=      5-min Rain = 0
KLA1 091358Z 13008KT 20/12 A3019 RMK A01 T02020122  RH  060%=      5-min Rain = 0
KLA1 091359Z 13011KT 20/12 A3019 RMK A01 T02020123  RH  060%=      5-min Rain = 0
KLA1 091400Z 13010KT 20/12 A3019 RMK A01 T02040124  RH  060%=      5-min Rain = 0
KLA1 091401Z 13013KT 21/13 A3019 RMK A01 T02050125  RH  060%=      5-min Rain = 0
KLA1 091402Z 13012KT 21/13 A302 RMK A01 T02050125  RH  060%=      5-min Rain = 0
KLA1 091403Z 13013KT 21/13 A3019 RMK A01 T02060126  RH  060%=      5-min Rain = 0
KLA1 091404Z 13010KT 21/13 A302 RMK A01 T02060125  RH  060%=      5-min Rain = 0
KLA1 091405Z 13014KT 21/13 A302 RMK A01 T02060126  RH  060%=      5-min Rain = 0
KLA1 091406Z 12010KT 21/13 A302 RMK A01 T02060125  RH  060%=      5-min Rain = 0
KLA1 091407Z 13010KT 21/13 A302 RMK A01 T02080126  RH  060%=      5-min Rain = 0
KLA1 091408Z 13013KT 21/13 A302 RMK A01 T02090126  RH  059%=      5-min Rain = 0
KLA1 091409Z 12012KT 21/13 A302 RMK A01 T02100126  RH  059%=      5-min Rain = 0
KLA1 091410Z 13009KT 21/13 A302 RMK A01 T02100126  RH  059%=      5-min Rain = 0
KLA1 091411Z 14009KT 21/13 A302 RMK A01 T02120127  RH  058%=      5-min Rain = 0
KLA1 091412Z 13007KT 21/13 A302 RMK A01 T02130128  RH  058%=      5-min Rain = 0
KLA1 091413Z 15010KT 22/13 A302 RMK A01 T02150128  RH  057%=      5-min Rain = 0
KLA1 091414Z 14010KT 22/13 A302 RMK A01 T02160128  RH  057%=      5-min Rain = 0
KLA1 091415Z 14009KT 22/13 A302 RMK A01 T02160129  RH  057%=      5-min Rain = 0
KLA1 091416Z 15010KT 22/13 A302 RMK A01 T02170129  RH  058%=      5-min Rain = 0
KLA1 091417Z 14010KT 22/13 A302 RMK A01 T02170129  RH  057%=      5-min Rain = 0
KLA1 091418Z 14011KT 22/13 A302 RMK A01 T02170129  RH  057%=      5-min Rain = 0
KLA1 091419Z 13014KT 22/13 A302 RMK A01 T02170129  RH  057%=      5-min Rain = 0
KLA1 091420Z 13014KT 22/13 A302 RMK A01 T02170129  RH  058%=      5-min Rain = 0
KLA1 091421Z 14011KT 22/13 A302 RMK A01 T02160129  RH  058%=      5-min Rain = 0
KLA1 091422Z 14013KT 22/13 A302 RMK A01 T02160130  RH  058%=      5-min Rain = 0
KLA1 091423Z 13013KT 22/13 A302 RMK A01 T02160130  RH  058%=      5-min Rain = 0
KLA1 091424Z 13013KT 22/13 A302 RMK A01 T02160130  RH  058%=      5-min Rain = 0
KLA1 091425Z 14013KT 22/13 A302 RMK A01 T02160130  RH  058%=      5-min Rain = 0
KLA1 091426Z 14012KT 22/13 A302 RMK A01 T02170131  RH  058%=      5-min Rain = 0
KLA1 091427Z 13011KT 22/13 A302 RMK A01 T02170131  RH  058%=      5-min Rain = 0
KLA1 091428Z 13012KT 22/13 A302 RMK A01 T02170131  RH  058%=      5-min Rain = 0
KLA1 091429Z 13011KT 22/13 A302 RMK A01 T02180132  RH  058%=      5-min Rain = 0
KLA1 091430Z 13011KT 22/13 A302 RMK A01 T02190132  RH  058%=      5-min Rain = 0
KLA1 091431Z 14013KT 22/13 A302 RMK A01 T02190132  RH  058%=      5-min Rain = 0
KLA1 091432Z 12011KT 22/13 A302 RMK A01 T02190132  RH  058%=      5-min Rain = 0
KLA1 091433Z 13013KT 22/13 A302 RMK A01 T02190132  RH  058%=      5-min Rain = 0
KLA1 091434Z 12010KT 22/13 A302 RMK A01 T02200132  RH  058%=      5-min Rain = 0
KLA1 091435Z 12010KT 22/13 A302 RMK A01 T02200133  RH  058%=      5-min Rain = 0
KLA1 091436Z 13011KT 22/13 A302 RMK A01 T02210133  RH  058%=      5-min Rain = 0
KLA1 091437Z 13012KT 22/13 A302 RMK A01 T02210133  RH  057%=      5-min Rain = 0
KLA1 091438Z 13012KT 22/13 A302 RMK A01 T02210133  RH  057%=      5-min Rain = 0
KLA1 091439Z 13009KT 22/13 A302 RMK A01 T02210133  RH  057%=      5-min Rain = 0
KLA1 091440Z 13010KT 22/13 A302 RMK A01 T02210134  RH  058%=      5-min Rain = 0
KLA1 091441Z 13009KT 22/13 A302 RMK A01 T02220134  RH  058%=      5-min Rain = 0
KLA1 091442Z 12012KT 22/14 A302 RMK A01 T02230135  RH  057%=      5-min Rain = 0
KLA1 091443Z 13013KT 22/14 A302 RMK A01 T02230135  RH  057%=      5-min Rain = 0
KLA1 091444Z 13013KT 22/14 A302 RMK A01 T02230135  RH  057%=      5-min Rain = 0
KLA1 091445Z 13009KT 22/14 A302 RMK A01 T02230135  RH  058%=      5-min Rain = 0
KLA1 091446Z 13013KT 22/14 A302 RMK A01 T02230136  RH  058%=      5-min Rain = 0
KLA1 091447Z 13011KT 23/14 A302 RMK A01 T02250136  RH  057%=      5-min Rain = 0
KLA1 091448Z 13009KT 23/14 A302 RMK A01 T02250136  RH  057%=      5-min Rain = 0
KLA1 091449Z 14008KT 23/14 A302 RMK A01 T02260136  RH  057%=      5-min Rain = 0
KLA1 091450Z 13011KT 23/14 A302 RMK A01 T02280138  RH  057%=      5-min Rain = 0
KLA1 091451Z 13011KT 23/14 A302 RMK A01 T02280138  RH  057%=      5-min Rain = 0
KLA1 091452Z 14011KT 23/14 A302 RMK A01 T02280138  RH  057%=      5-min Rain = 0
KLA1 091453Z 14011KT 23/14 A302 RMK A01 T02280138  RH  057%=      5-min Rain = 0
KLA1 091454Z 13010KT 23/14 A302 RMK A01 T02290139  RH  057%=      5-min Rain = 0
KLA1 091455Z 12011KT 23/14 A302 RMK A01 T02300139  RH  057%=      5-min Rain = 0
KLA1 091456Z 12013KT 23/14 A302 RMK A01 T02300139  RH  056%=      5-min Rain = 0
KLA1 091457Z 12010KT 23/14 A302 RMK A01 T02290139  RH  057%=      5-min Rain = 0
KLA1 091458Z 12010KT 23/14 A302 RMK A01 T02280140  RH  057%=      5-min Rain = 0
KLA1 091459Z 13011KT 23/14 A302 RMK A01 T02300140  RH  057%=      5-min Rain = 0
KLA1 091500Z 13009KT 23/14 A302 RMK A01 T02300140  RH  057%=      5-min Rain = 0
KLA1 091501Z 13009KT 23/14 A302 RMK A01 T02310141  RH  057%=      5-min Rain = 0
KLA1 091502Z 13011KT 23/14 A302 RMK A01 T02310141  RH  057%=      5-min Rain = 0
KLA1 091503Z 14010KT 23/14 A3021 RMK A01 T02310141  RH  057%=      5-min Rain = 0
KLA1 091504Z 14009KT 23/14 A3021 RMK A01 T02310140  RH  057%=      5-min Rain = 0
KLA1 091505Z 14013KT 23/14 A3021 RMK A01 T02320141  RH  056%=      5-min Rain = 0
KLA1 091506Z 13011KT 23/14 A3021 RMK A01 T02320140  RH  056%=      5-min Rain = 0
KLA1 091507Z 15012KT 23/14 A3021 RMK A01 T02320141  RH  057%=      5-min Rain = 0
KLA1 091508Z 14014KT 23/14 A3021 RMK A01 T02310140  RH  057%=      5-min Rain = 0
KLA1 091509Z 13012KT 23/14 A3021 RMK A01 T02300141  RH  057%=      5-min Rain = 0
KLA1 091510Z 14011KT 23/14 A3021 RMK A01 T02300141  RH  057%=      5-min Rain = 0
KLA1 091511Z 14012KT 23/14 A3021 RMK A01 T02310141  RH  057%=      5-min Rain = 0
KLA1 091512Z 15011KT 23/14 A3021 RMK A01 T02320143  RH  057%=      5-min Rain = 0
KLA1 091513Z 14009KT 23/14 A3021 RMK A01 T02320143  RH  057%=      5-min Rain = 0
KLA1 091514Z 15014KT 23/15 A3021 RMK A01 T02330145  RH  058%=      5-min Rain = 0
KLA1 091515Z 14008KT 23/15 A3021 RMK A01 T02320145  RH  058%=      5-min Rain = 0
KLA1 091516Z 13008KT 23/15 A3021 RMK A01 T02300145  RH  059%=      5-min Rain = 0
KLA1 091517Z 15007KT 23/15 A3021 RMK A01 T02290145  RH  059%=      5-min Rain = 0
KLA1 091518Z 15006KT 23/15 A3021 RMK A01 T02300145  RH  059%=      5-min Rain = 0
KLA1 091519Z 13008KT 23/15 A3021 RMK A01 T02320146  RH  059%=      5-min Rain = 0
KLA1 091520Z 16011KT 23/15 A3021 RMK A01 T02340147  RH  058%=      5-min Rain = 0
KLA1 091521Z 15008KT 24/15 A3021 RMK A01 T02350147  RH  058%=      5-min Rain = 0
KLA1 091522Z 14009KT 24/15 A3021 RMK A01 T02360149  RH  058%=      5-min Rain = 0
KLA1 091523Z 13012KT 24/15 A3021 RMK A01 T02370151  RH  058%=      5-min Rain = 0
KLA1 091524Z 12011KT 24/15 A3021 RMK A01 T02360150  RH  058%=      5-min Rain = 0
KLA1 091525Z 13008KT 24/15 A3021 RMK A01 T02350149  RH  058%=      5-min Rain = 0
KLA1 091526Z 13009KT 24/15 A3021 RMK A01 T02360150  RH  059%=      5-min Rain = 0
KLA1 091527Z 16010KT 24/15 A3021 RMK A01 T02370151  RH  059%=      5-min Rain = 0
KLA1 091528Z 15008KT 24/15 A3021 RMK A01 T02370152  RH  059%=      5-min Rain = 0
KLA1 091529Z 17009KT 24/15 A3021 RMK A01 T02370151  RH  059%=      5-min Rain = 0
KLA1 091530Z 14007KT 24/15 A3021 RMK A01 T02370151  RH  059%=      5-min Rain = 0
KLA1 091531Z 14007KT 24/15 A3021 RMK A01 T02390151  RH  058%=      5-min Rain = 0
KLA1 091532Z 14011KT 24/15 A3021 RMK A01 T02400152  RH  058%=      5-min Rain = 0
KLA1 091533Z 15010KT 24/15 A3021 RMK A01 T02410152  RH  057%=      5-min Rain = 0
KLA1 091534Z 14010KT 24/15 A3021 RMK A01 T02400151  RH  057%=      5-min Rain = 0
KLA1 091535Z 14007KT 24/15 A3021 RMK A01 T02380150  RH  058%=      5-min Rain = 0
KLA1 091536Z 15010KT 24/15 A3021 RMK A01 T02380151  RH  058%=      5-min Rain = 0
KLA1 091537Z 15010G17KT 24/15 A3021 RMK A01 T02380151  RH  058%=      5-min Rain = 0
KLA1 091538Z 14013KT 24/15 A3021 RMK A01 T02400150  RH  057%=      5-min Rain = 0
KLA1 091539Z 15009KT 24/15 A3021 RMK A01 T02400150  RH  057%=      5-min Rain = 0
KLA1 091540Z 16009KT 24/15 A3021 RMK A01 T02390150  RH  057%=      5-min Rain = 0
KLA1 091541Z 16007KT 24/15 A3021 RMK A01 T02400151  RH  057%=      5-min Rain = 0
KLA1 091542Z 16013KT 24/15 A3021 RMK A01 T02410151  RH  057%=      5-min Rain = 0
KLA1 091543Z 14013KT 24/15 A3022 RMK A01 T02420151  RH  057%=      5-min Rain = 0
KLA1 091544Z 13011KT 24/15 A3022 RMK A01 T02420151  RH  057%=      5-min Rain = 0
KLA1 091545Z 13012KT 24/15 A3022 RMK A01 T02400150  RH  057%=      5-min Rain = 0
KLA1 091546Z 14009KT 24/15 A3022 RMK A01 T02390150  RH  057%=      5-min Rain = 0
KLA1 091547Z 14009KT 24/15 A3021 RMK A01 T02390149  RH  057%=      5-min Rain = 0
KLA1 091548Z 13005KT 24/15 A3021 RMK A01 T02400150  RH  057%=      5-min Rain = 0
KLA1 091549Z 13006KT 24/15 A3021 RMK A01 T02430153  RH  057%=      5-min Rain = 0
KLA1 091550Z 12007KT 25/15 A3021 RMK A01 T02460152  RH  056%=      5-min Rain = 0
KLA1 091551Z 12007KT 25/15 A3021 RMK A01 T02470151  RH  055%=      5-min Rain = 0
KLA1 091552Z 15010KT 25/15 A3021 RMK A01 T02470151  RH  055%=      5-min Rain = 0
KLA1 091553Z 14010KT 25/15 A3021 RMK A01 T02460150  RH  055%=      5-min Rain = 0
KLA1 091554Z 14009KT 25/15 A3021 RMK A01 T02460151  RH  055%=      5-min Rain = 0
KLA1 091555Z 13010KT 24/15 A3021 RMK A01 T02440150  RH  056%=      5-min Rain = 0
KLA1 091556Z 13011KT 25/15 A3021 RMK A01 T02460152  RH  056%=      5-min Rain = 0
KLA1 091557Z 15009KT 25/15 A3021 RMK A01 T02460152  RH  056%=      5-min Rain = 0
KLA1 091558Z 15008KT 25/15 A3021 RMK A01 T02460152  RH  056%=      5-min Rain = 0
KLA1 091559Z 13010KT 25/15 A3021 RMK A01 T02460152  RH  056%=      5-min Rain = 0
KLA1 091600Z 15009G14KT 25/15 A3021 RMK A01 T02470152  RH  056%=      5-min Rain = 0
KLA1 091601Z 16011KT 25/15 A3021 RMK A01 T02500152  RH  055%=      5-min Rain = 0
KLA1 091602Z 15007KT 25/15 A3021 RMK A01 T02470151  RH  055%=      5-min Rain = 0
KLA1 091603Z 15008KT 25/15 A3021 RMK A01 T02460153  RH  056%=      5-min Rain = 0
KLA1 091604Z 15007KT 25/15 A3021 RMK A01 T02460152  RH  055%=      5-min Rain = 0
KLA1 091605Z 14008KT 25/15 A3021 RMK A01 T02470152  RH  056%=      5-min Rain = 0
KLA1 091606Z 13008KT 25/15 A3021 RMK A01 T02480152  RH  055%=      5-min Rain = 0
KLA1 091607Z 14009KT 25/15 A3021 RMK A01 T02500152  RH  054%=      5-min Rain = 0
KLA1 091608Z 14010KT 25/15 A3021 RMK A01 T02510152  RH  054%=      5-min Rain = 0
KLA1 091609Z 13010KT 25/15 A3021 RMK A01 T02500152  RH  055%=      5-min Rain = 0
KLA1 091610Z 14010KT 25/15 A3021 RMK A01 T02500151  RH  054%=      5-min Rain = 0
KLA1 091611Z 14010KT 25/15 A3021 RMK A01 T02480151  RH  055%=      5-min Rain = 0
KLA1 091612Z 14011KT 25/15 A3021 RMK A01 T02470152  RH  055%=      5-min Rain = 0
KLA1 091613Z 13012KT 25/15 A3021 RMK A01 T02480152  RH  055%=      5-min Rain = 0
KLA1 091614Z 15009KT 25/15 A3021 RMK A01 T02480152  RH  055%=      5-min Rain = 0
KLA1 091615Z 13007KT 25/15 A3021 RMK A01 T02490152  RH  055%=      5-min Rain = 0
KLA1 091616Z 13009KT 25/15 A3021 RMK A01 T02490153  RH  055%=      5-min Rain = 0
KLA1 091617Z 13008KT 25/15 A3021 RMK A01 T02500153  RH  055%=      5-min Rain = 0
KLA1 091618Z 14010KT 25/15 A3021 RMK A01 T02510154  RH  055%=      5-min Rain = 0
KLA1 091619Z 15009KT 25/15 A3021 RMK A01 T02520154  RH  054%=      5-min Rain = 0
KLA1 091620Z 15012KT 25/15 A3021 RMK A01 T02520154  RH  055%=      5-min Rain = 0
KLA1 091621Z 14009KT 25/15 A3021 RMK A01 T02520154  RH  054%=      5-min Rain = 0
KLA1 091622Z 13007KT 25/16 A3021 RMK A01 T02530155  RH  055%=      5-min Rain = 0
KLA1 091623Z 13009KT 25/16 A3021 RMK A01 T02530155  RH  055%=      5-min Rain = 0
KLA1 091624Z 13007KT 25/15 A3021 RMK A01 T02520154  RH  054%=      5-min Rain = 0
KLA1 091625Z 16008KT 25/16 A3021 RMK A01 T02510155  RH  055%=      5-min Rain = 0
KLA1 091626Z 16008KT 25/16 A3021 RMK A01 T02520155  RH  055%=      5-min Rain = 0
KLA1 091627Z 15006KT 25/15 A3021 RMK A01 T02530154  RH  054%=      5-min Rain = 0
KLA1 091628Z 15009KT 25/16 A3021 RMK A01 T02530155  RH  055%=      5-min Rain = 0
KLA1 091629Z 14010G15KT 25/16 A3021 RMK A01 T02530155  RH  055%=      5-min Rain = 0
KLA1 091630Z 13006KT 25/15 A3021 RMK A01 T02530154  RH  054%=      5-min Rain = 0
KLA1 091631Z 14008KT 25/16 A3021 RMK A01 T02530155  RH  055%=      5-min Rain = 0
KLA1 091632Z 14006KT 25/16 A3021 RMK A01 T02540158  RH  055%=      5-min Rain = 0
KLA1 091633Z 15006KT 26/16 A3021 RMK A01 T02560159  RH  055%=      5-min Rain = 0
KLA1 091634Z 15008KT 26/16 A3021 RMK A01 T02580160  RH  055%=      5-min Rain = 0
KLA1 091635Z 15010KT 26/16 A3021 RMK A01 T02600159  RH  054%=      5-min Rain = 0
KLA1 091636Z 15013KT 26/16 A3021 RMK A01 T02600158  RH  054%=      5-min Rain = 0
KLA1 091637Z 15012KT 26/16 A3021 RMK A01 T02590159  RH  054%=      5-min Rain = 0
KLA1 091638Z 15010KT 26/16 A3021 RMK A01 T02580160  RH  055%=      5-min Rain = 0
KLA1 091639Z 15012KT 26/16 A3021 RMK A01 T02580160  RH  055%=      5-min Rain = 0
KLA1 091640Z 15010KT 26/16 A3021 RMK A01 T02570161  RH  055%=      5-min Rain = 0
KLA1 091641Z 15008KT 26/16 A3021 RMK A01 T02550160  RH  056%=      5-min Rain = 0
KLA1 091642Z 17007KT 25/16 A3021 RMK A01 T02540160  RH  056%=      5-min Rain = 0
KLA1 091643Z 16005KT 25/16 A3021 RMK A01 T02540159  RH  056%=      5-min Rain = 0
KLA1 091644Z 12006KT 25/16 A3021 RMK A01 T02540159  RH  056%=      5-min Rain = 0
KLA1 091645Z 13006KT 26/16 A3021 RMK A01 T02550160  RH  056%=      5-min Rain = 0
KLA1 091646Z 13008KT 26/16 A3021 RMK A01 T02560159  RH  055%=      5-min Rain = 0
KLA1 091647Z 13007KT 26/16 A3021 RMK A01 T02560160  RH  055%=      5-min Rain = 0
KLA1 091648Z 14009KT 26/16 A3021 RMK A01 T02580161  RH  055%=      5-min Rain = 0
KLA1 091649Z 14009KT 26/16 A3021 RMK A01 T02610160  RH  054%=      5-min Rain = 0
KLA1 091650Z 16005KT 26/16 A3021 RMK A01 T02600160  RH  054%=      5-min Rain = 0
KLA1 091651Z 12009KT 26/16 A3021 RMK A01 T02600162  RH  055%=      5-min Rain = 0
KLA1 091652Z 13008KT 26/16 A3021 RMK A01 T02610161  RH  054%=      5-min Rain = 0
KLA1 091653Z 13009KT 26/16 A3021 RMK A01 T02620161  RH  054%=      5-min Rain = 0
KLA1 091654Z 12008KT 26/16 A302 RMK A01 T02620161  RH  054%=      5-min Rain = 0
KLA1 091655Z 11007KT 26/16 A302 RMK A01 T02600160  RH  054%=      5-min Rain = 0
KLA1 091656Z 11006KT 26/16 A302 RMK A01 T02600159  RH  054%=      5-min Rain = 0
KLA1 091657Z 13008KT 26/16 A302 RMK A01 T02590159  RH  054%=      5-min Rain = 0
KLA1 091658Z 17007KT 26/16 A302 RMK A01 T02590161  RH  055%=      5-min Rain = 0
KLA1 091659Z 17007KT 26/16 A302 RMK A01 T02600161  RH  054%=      5-min Rain = 0
KLA1 091700Z 15007KT 26/16 A302 RMK A01 T02610161  RH  054%=      5-min Rain = 0
KLA1 091701Z 16009KT 27/16 A302 RMK A01 T02660161  RH  052%=      5-min Rain = 0
KLA1 091702Z 14009KT 27/16 A302 RMK A01 T02650158  RH  052%=      5-min Rain = 0
KLA1 091703Z 11006KT 26/16 A302 RMK A01 T02630159  RH  053%=      5-min Rain = 0
KLA1 091704Z 13002KT 26/16 A302 RMK A01 T02630158  RH  052%=      5-min Rain = 0
KLA1 091705Z 14006G11KT 26/16 A302 RMK A01 T02630158  RH  052%=      5-min Rain = 0
KLA1 091706Z 14010KT 26/16 A302 RMK A01 T02640158  RH  052%=      5-min Rain = 0
KLA1 091707Z 15007KT 27/16 A302 RMK A01 T02650158  RH  052%=      5-min Rain = 0
KLA1 091708Z 15006KT 27/16 A302 RMK A01 T02650160  RH  052%=      5-min Rain = 0
KLA1 091709Z 15008KT 27/16 A302 RMK A01 T02670158  RH  051%=      5-min Rain = 0
KLA1 091710Z 15006KT 27/16 A302 RMK A01 T02670158  RH  051%=      5-min Rain = 0
KLA1 091711Z 16008KT 27/16 A302 RMK A01 T02680160  RH  052%=      5-min Rain = 0
KLA1 091712Z 17010KT 27/16 A302 RMK A01 T02720159  RH  050%=      5-min Rain = 0
KLA1 091713Z 16008KT 27/16 A302 RMK A01 T02720158  RH  050%=      5-min Rain = 0
KLA1 091714Z 15009KT 27/16 A302 RMK A01 T02690159  RH  051%=      5-min Rain = 0
KLA1 091715Z 15008KT 27/16 A302 RMK A01 T02670156  RH  051%=      5-min Rain = 0
KLA1 091716Z 15005KT 27/16 A302 RMK A01 T02650156  RH  051%=      5-min Rain = 0
KLA1 091717Z 14006G11KT 27/16 A302 RMK A01 T02650157  RH  051%=      5-min Rain = 0
KLA1 091718Z 14009KT 27/16 A302 RMK A01 T02670158  RH  051%=      5-min Rain = 0
KLA1 091719Z 15007KT 27/16 A302 RMK A01 T02680158  RH  051%=      5-min Rain = 0
KLA1 091720Z 17009KT 27/16 A302 RMK A01 T02680158  RH  051%=      5-min Rain = 0
KLA1 091721Z 15008KT 27/16 A302 RMK A01 T02690159  RH  051%=      5-min Rain = 0
KLA1 091722Z 13006KT 27/16 A302 RMK A01 T02700158  RH  050%=      5-min Rain = 0
KLA1 091723Z 14006KT 27/16 A302 RMK A01 T02690158  RH  050%=      5-min Rain = 0
KLA1 091724Z 13004KT 27/16 A302 RMK A01 T02690158  RH  051%=      5-min Rain = 0
KLA1 091725Z 17009KT 27/16 A302 RMK A01 T02680158  RH  051%=      5-min Rain = 0
KLA1 091726Z 17010KT 27/16 A302 RMK A01 T02690158  RH  051%=      5-min Rain = 0
KLA1 091727Z 15008KT 27/16 A302 RMK A01 T02690157  RH  050%=      5-min Rain = 0
KLA1 091728Z 16007KT 27/16 A3019 RMK A01 T02700159  RH  051%=      5-min Rain = 0
KLA1 091729Z 17004KT 27/16 A3019 RMK A01 T02730159  RH  050%=      5-min Rain = 0
KLA1 091730Z 14005KT 28/16 A3019 RMK A01 T02750158  RH  049%=      5-min Rain = 0
KLA1 091731Z 14005KT 28/16 A3019 RMK A01 T02760157  RH  048%=      5-min Rain = 0
KLA1 091732Z 15006KT 28/16 A3019 RMK A01 T02760158  RH  049%=      5-min Rain = 0
KLA1 091733Z 14009KT 28/16 A3019 RMK A01 T02770159  RH  049%=      5-min Rain = 0
KLA1 091734Z 15006KT 28/16 A3019 RMK A01 T02780157  RH  048%=      5-min Rain = 0
KLA1 091735Z 17007KT 28/16 A3019 RMK A01 T02750157  RH  049%=      5-min Rain = 0
KLA1 091736Z 18007KT 27/16 A3019 RMK A01 T02740157  RH  049%=      5-min Rain = 0
KLA1 091737Z 17005KT 27/16 A3019 RMK A01 T02720157  RH  050%=      5-min Rain = 0
KLA1 091738Z 19005KT 27/16 A3019 RMK A01 T02720157  RH  049%=      5-min Rain = 0
KLA1 091739Z 18007KT 27/16 A3019 RMK A01 T02740156  RH  048%=      5-min Rain = 0
KLA1 091740Z 15010KT 28/16 A3019 RMK A01 T02770155  RH  047%=      5-min Rain = 0
KLA1 091741Z 14012KT 28/15 A3019 RMK A01 T02780154  RH  047%=      5-min Rain = 0
KLA1 091742Z 16011KT 28/15 A3019 RMK A01 T02750154  RH  048%=      5-min Rain = 0
KLA1 091743Z 16011KT 27/16 A3019 RMK A01 T02730155  RH  049%=      5-min Rain = 0
KLA1 091744Z 16006KT 27/15 A3019 RMK A01 T02710154  RH  049%=      5-min Rain = 0
KLA1 091745Z 17008KT 27/15 A3019 RMK A01 T02710153  RH  048%=      5-min Rain = 0
KLA1 091746Z 17009KT 27/15 A3019 RMK A01 T02730151  RH  047%=      5-min Rain = 0
KLA1 091747Z 17010KT 27/15 A3019 RMK A01 T02730150  RH  047%=      5-min Rain = 0
KLA1 091748Z 16011KT 27/15 A3019 RMK A01 T02730149  RH  047%=      5-min Rain = 0
KLA1 091749Z 15010KT 27/15 A3019 RMK A01 T02740150  RH  047%=      5-min Rain = 0
KLA1 091750Z 16007KT 28/15 A3019 RMK A01 T02750149  RH  046%=      5-min Rain = 0
KLA1 091751Z 16005KT 28/15 A3018 RMK A01 T02760151  RH  046%=      5-min Rain = 0
KLA1 091752Z 14007KT 28/15 A3019 RMK A01 T02770153  RH  047%=      5-min Rain = 0
KLA1 091753Z 15007KT 28/15 A3019 RMK A01 T02790153  RH  046%=      5-min Rain = 0
KLA1 091754Z 13005KT 28/15 A3018 RMK A01 T02790153  RH  046%=      5-min Rain = 0
KLA1 091755Z 13004KT 28/15 A3018 RMK A01 T02770153  RH  047%=      5-min Rain = 0
KLA1 091756Z 18004KT 28/15 A3018 RMK A01 T02750151  RH  047%=      5-min Rain = 0
KLA1 091757Z 20006KT 27/15 A3018 RMK A01 T02730153  RH  048%=      5-min Rain = 0
KLA1 091758Z 19008KT 28/15 A3018 RMK A01 T02750154  RH  048%=      5-min Rain = 0
KLA1 091759Z 17007KT 28/16 A3018 RMK A01 T02750155  RH  048%=      5-min Rain = 0
KLA1 091800Z 16010KT 28/16 A3018 RMK A01 T02780158  RH  048%=      5-min Rain = 0
KLA1 091801Z 16010KT 28/16 A3018 RMK A01 T02820155  RH  046%=      5-min Rain = 0
KLA1 091802Z 15010KT 28/15 A3018 RMK A01 T02820154  RH  046%=      5-min Rain = 0
KLA1 091803Z 16007KT 28/15 A3018 RMK A01 T02820154  RH  046%=      5-min Rain = 0
KLA1 091804Z 13005KT 28/15 A3018 RMK A01 T02820154  RH  045%=      5-min Rain = 0
KLA1 091805Z 12003KT 28/15 A3018 RMK A01 T02820154  RH  046%=      5-min Rain = 0
KLA1 091806Z 17004G10KT 28/16 A3018 RMK A01 T02820156  RH  046%=      5-min Rain = 0
KLA1 091807Z 16008KT 28/15 A3018 RMK A01 T02830153  RH  045%=      5-min Rain = 0
KLA1 091808Z 16010KT 28/15 A3018 RMK A01 T02820150  RH  044%=      5-min Rain = 0
KLA1 091809Z 17010KT 29/15 A3018 RMK A01 T02850147  RH  043%=      5-min Rain = 0
KLA1 091810Z 16010KT 29/15 A3018 RMK A01 T02850148  RH  043%=      5-min Rain = 0
KLA1 091811Z 16008KT 29/15 A3018 RMK A01 T02850148  RH  043%=      5-min Rain = 0
KLA1 091812Z 16007KT 29/15 A3018 RMK A01 T02850149  RH  043%=      5-min Rain = 0
KLA1 091813Z 17007G12KT 29/15 A3018 RMK A01 T02860149  RH  043%=      5-min Rain = 0
KLA1 091814Z 17009KT 29/15 A3017 RMK A01 T02860149  RH  043%=      5-min Rain = 0
KLA1 091815Z 16010KT 28/15 A3018 RMK A01 T02840149  RH  044%=      5-min Rain = 0
KLA1 091816Z 16008KT 28/15 A3018 RMK A01 T02830148  RH  044%=      5-min Rain = 0
KLA1 091817Z 17006KT 28/15 A3017 RMK A01 T02820148  RH  044%=      5-min Rain = 0
KLA1 091818Z 18007KT 28/15 A3017 RMK A01 T02840148  RH  044%=      5-min Rain = 0
KLA1 091819Z 17007KT 29/15 A3017 RMK A01 T02850153  RH  045%=      5-min Rain = 0
KLA1 091820Z 18007KT 29/15 A3017 RMK A01 T02860151  RH  044%=      5-min Rain = 0
KLA1 091821Z 15006KT 28/15 A3017 RMK A01 T02820150  RH  044%=      5-min Rain = 0
KLA1 091822Z 13004KT 28/15 A3017 RMK A01 T02810148  RH  044%=      5-min Rain = 0
KLA1 091823Z 14004KT 28/15 A3017 RMK A01 T02800146  RH  044%=      5-min Rain = 0
KLA1 091824Z 12008G13KT 28/15 A3017 RMK A01 T02800149  RH  045%=      5-min Rain = 0
KLA1 091825Z 13007KT 28/15 A3017 RMK A01 T02820149  RH  044%=      5-min Rain = 0
KLA1 091826Z 12005G11KT 28/15 A3017 RMK A01 T02830149  RH  044%=      5-min Rain = 0
KLA1 091827Z 12009G14KT 28/15 A3017 RMK A01 T02840149  RH  044%=      5-min Rain = 0
KLA1 091828Z 12007KT 29/15 A3017 RMK A01 T02880151  RH  043%=      5-min Rain = 0
KLA1 091829Z 14007KT 29/15 A3017 RMK A01 T02880151  RH  043%=      5-min Rain = 0
KLA1 091830Z 15008KT 29/15 A3017 RMK A01 T02880151  RH  043%=      5-min Rain = 0
KLA1 091831Z 16006KT 29/15 A3017 RMK A01 T02870152  RH  044%=      5-min Rain = 0
KLA1 091832Z 17007G12KT 29/15 A3017 RMK A01 T02880151  RH  043%=      5-min Rain = 0
KLA1 091833Z 17007KT 29/15 A3017 RMK A01 T02880151  RH  043%=      5-min Rain = 0
KLA1 091834Z 13010G16KT 29/15 A3017 RMK A01 T02890153  RH  044%=      5-min Rain = 0
KLA1 091835Z 13013KT 29/15 A3017 RMK A01 T02910149  RH  042%=      5-min Rain = 0
KLA1 091836Z 12011KT 29/15 A3017 RMK A01 T02910147  RH  042%=      5-min Rain = 0
KLA1 091837Z 10005KT 29/15 A3017 RMK A01 T02880147  RH  042%=      5-min Rain = 0
KLA1 091838Z 13009KT 29/15 A3017 RMK A01 T02880150  RH  043%=      5-min Rain = 0
KLA1 091839Z 14006KT 29/15 A3017 RMK A01 T02880147  RH  042%=      5-min Rain = 0
KLA1 091840Z 17006KT 29/15 A3017 RMK A01 T02860147  RH  043%=      5-min Rain = 0
KLA1 091841Z 13010KT 29/15 A3017 RMK A01 T02850148  RH  043%=      5-min Rain = 0
KLA1 091842Z 13007KT 28/15 A3017 RMK A01 T02840147  RH  043%=      5-min Rain = 0
KLA1 091843Z 16004KT 28/15 A3017 RMK A01 T02810147  RH  044%=      5-min Rain = 0
KLA1 091844Z 13004KT 28/15 A3016 RMK A01 T02810148  RH  044%=      5-min Rain = 0
KLA1 091845Z 14006KT 28/15 A3016 RMK A01 T02840148  RH  043%=      5-min Rain = 0
KLA1 091846Z 14011KT 29/15 A3016 RMK A01 T02890148  RH  042%=      5-min Rain = 0
KLA1 091847Z 14008KT 29/15 A3016 RMK A01 T02910145  RH  041%=      5-min Rain = 0
KLA1 091848Z 13012KT 29/15 A3016 RMK A01 T02920147  RH  041%=      5-min Rain = 0
KLA1 091849Z 12010KT 29/15 A3016 RMK A01 T02940145  RH  040%=      5-min Rain = 0
KLA1 091850Z 14009G14KT 29/15 A3016 RMK A01 T02940145  RH  040%=      5-min Rain = 0
KLA1 091851Z 12009KT 29/15 A3016 RMK A01 T02940146  RH  041%=      5-min Rain = 0
KLA1 091852Z 11006KT 29/15 A3016 RMK A01 T02930145  RH  041%=      5-min Rain = 0
KLA1 091853Z 14005KT 29/15 A3016 RMK A01 T02910146  RH  041%=      5-min Rain = 0
KLA1 091854Z 12005KT 29/14 A3016 RMK A01 T02900143  RH  041%=      5-min Rain = 0
KLA1 091855Z 11003KT 29/15 A3016 RMK A01 T02860145  RH  042%=      5-min Rain = 0
KLA1 091856Z 12002KT 29/15 A3016 RMK A01 T02850145  RH  042%=      5-min Rain = 0
KLA1 091857Z 12002KT 29/15 A3016 RMK A01 T02850146  RH  042%=      5-min Rain = 0
KLA1 091858Z 16007G12KT 29/15 A3016 RMK A01 T02880151  RH  043%=      5-min Rain = 0
KLA1 091859Z 14008KT 29/15 A3016 RMK A01 T02920154  RH  043%=      5-min Rain = 0
KLA1 091900Z 13006KT 30/15 A3016 RMK A01 T02950150  RH  041%=      5-min Rain = 0
KLA1 091901Z 15007G12KT 29/15 A3016 RMK A01 T02930148  RH  041%=      5-min Rain = 0
KLA1 091902Z 14009KT 29/15 A3016 RMK A01 T02920147  RH  041%=      5-min Rain = 0
KLA1 091903Z 13009KT 29/15 A3016 RMK A01 T02930147  RH  041%=      5-min Rain = 0
KLA1 091904Z 13011KT 30/15 A3016 RMK A01 T02970146  RH  040%=      5-min Rain = 0
KLA1 091905Z 12008KT 30/15 A3016 RMK A01 T02980145  RH  039%=      5-min Rain = 0
KLA1 091906Z 11010KT 30/14 A3016 RMK A01 T02980143  RH  039%=      5-min Rain = 0
KLA1 091907Z 13008KT 30/14 A3016 RMK A01 T02950144  RH  040%=      5-min Rain = 0
KLA1 091908Z 13011KT 29/15 A3016 RMK A01 T02940147  RH  041%=      5-min Rain = 0
KLA1 091909Z 14010KT 29/15 A3016 RMK A01 T02930145  RH  041%=      5-min Rain = 0
KLA1 091910Z 14009KT 29/15 A3016 RMK A01 T02910146  RH  041%=      5-min Rain = 0
KLA1 091911Z 12004KT 29/15 A3016 RMK A01 T02910145  RH  041%=      5-min Rain = 0
KLA1 091912Z 06002KT 29/14 A3015 RMK A01 T02890144  RH  041%=      5-min Rain = 0
KLA1 091913Z 16002KT 29/14 A3015 RMK A01 T02880144  RH  041%=      5-min Rain = 0
KLA1 091914Z 18004G9KT 29/15 A3015 RMK A01 T02870145  RH  042%=      5-min Rain = 0
KLA1 091915Z 16006KT 29/15 A3015 RMK A01 T02900147  RH  042%=      5-min Rain = 0
KLA1 091916Z 18007KT 29/15 A3015 RMK A01 T02930147  RH  041%=      5-min Rain = 0
KLA1 091917Z 19006KT 30/15 A3015 RMK A01 T02950145  RH  040%=      5-min Rain = 0
KLA1 091918Z 17006KT 29/15 A3015 RMK A01 T02920145  RH  040%=      5-min Rain = 0
KLA1 091919Z 15010KT 29/15 A3015 RMK A01 T02930145  RH  040%=      5-min Rain = 0
KLA1 091920Z 15008KT 30/15 A3015 RMK A01 T02960145  RH  040%=      5-min Rain = 0
KLA1 091921Z 15010KT 30/15 A3015 RMK A01 T02970145  RH  040%=      5-min Rain = 0
KLA1 091922Z 15014KT 30/14 A3015 RMK A01 T02980144  RH  039%=      5-min Rain = 0
KLA1 091923Z 13012KT 30/14 A3015 RMK A01 T02990144  RH  039%=      5-min Rain = 0
KLA1 091924Z 12011KT 30/14 A3015 RMK A01 T02990144  RH  039%=      5-min Rain = 0
KLA1 091925Z 12007KT 30/14 A3015 RMK A01 T02970144  RH  039%=      5-min Rain = 0
KLA1 091926Z 12004KT 30/14 A3015 RMK A01 T02960139  RH  038%=      5-min Rain = 0
KLA1 091927Z 11005KT 29/14 A3014 RMK A01 T02940142  RH  040%=      5-min Rain = 0
KLA1 091928Z 12008KT 30/14 A3014 RMK A01 T02970143  RH  039%=      5-min Rain = 0
KLA1 091929Z 12009KT 30/14 A3014 RMK A01 T02980142  RH  039%=      5-min Rain = 0
KLA1 091930Z 13009KT 30/14 A3014 RMK A01 T02980144  RH  039%=      5-min Rain = 0
KLA1 091931Z 14008KT 30/14 A3014 RMK A01 T02990144  RH  039%=      5-min Rain = 0
KLA1 091932Z 15008KT 30/15 A3014 RMK A01 T03010146  RH  039%=      5-min Rain = 0
KLA1 091933Z 15004KT 30/14 A3014 RMK A01 T02990144  RH  039%=      5-min Rain = 0
KLA1 091934Z 14006G12KT 30/15 A3014 RMK A01 T02960146  RH  040%=      5-min Rain = 0
KLA1 091935Z 15005KT 30/15 A3014 RMK A01 T02950145  RH  040%=      5-min Rain = 0
KLA1 091936Z 13005KT 29/15 A3014 RMK A01 T02940145  RH  040%=      5-min Rain = 0
KLA1 091937Z 12005KT 30/15 A3014 RMK A01 T02950146  RH  040%=      5-min Rain = 0
KLA1 091938Z 10004KT 29/14 A3014 RMK A01 T02930144  RH  040%=      5-min Rain = 0
KLA1 091939Z 15006G13KT 29/15 A3014 RMK A01 T02920146  RH  041%=      5-min Rain = 0
KLA1 091940Z 12012KT 30/14 A3014 RMK A01 T02960144  RH  040%=      5-min Rain = 0
KLA1 091941Z 12009KT 30/14 A3014 RMK A01 T02980143  RH  039%=      5-min Rain = 0
KLA1 091942Z 11010KT 30/14 A3014 RMK A01 T02960142  RH  039%=      5-min Rain = 0
KLA1 091943Z 14010KT 30/15 A3014 RMK A01 T02970146  RH  040%=      5-min Rain = 0
KLA1 091944Z 16009KT 30/15 A3014 RMK A01 T03020147  RH  039%=      5-min Rain = 0
KLA1 091945Z 16008KT 30/15 A3014 RMK A01 T03030145  RH  038%=      5-min Rain = 0
KLA1 091946Z 15012KT 30/15 A3014 RMK A01 T03020145  RH  039%=      5-min Rain = 0
KLA1 091947Z 16010KT 30/15 A3013 RMK A01 T03000145  RH  039%=      5-min Rain = 0
KLA1 091948Z 16009KT 30/15 A3013 RMK A01 T02970145  RH  040%=      5-min Rain = 0
KLA1 091949Z 16006KT 30/15 A3013 RMK A01 T02960146  RH  040%=      5-min Rain = 0
KLA1 091950Z 17004KT 30/15 A3013 RMK A01 T02970146  RH  040%=      5-min Rain = 0
KLA1 091951Z 17008KT 30/15 A3013 RMK A01 T02990146  RH  039%=      5-min Rain = 0
KLA1 091952Z 19005KT 30/15 A3013 RMK A01 T02990145  RH  039%=      5-min Rain = 0
KLA1 091953Z 19007KT 30/15 A3013 RMK A01 T02990145  RH  039%=      5-min Rain = 0
KLA1 091954Z 17008KT 30/15 A3013 RMK A01 T03010145  RH  039%=      5-min Rain = 0
KLA1 091955Z 14007KT 30/15 A3013 RMK A01 T03010146  RH  039%=      5-min Rain = 0
KLA1 091956Z 11010KT 30/14 A3013 RMK A01 T03020140  RH  037%=      5-min Rain = 0
KLA1 091957Z 11011KT 30/14 A3013 RMK A01 T03020139  RH  037%=      5-min Rain = 0
KLA1 091958Z 11008KT 30/14 A3013 RMK A01 T03010137  RH  037%=      5-min Rain = 0
KLA1 091959Z 10005KT 30/13 A3013 RMK A01 T02980133  RH  036%=      5-min Rain = 0
KLA1 092000Z 11007G12KT 30/14 A3013 RMK A01 T02970136  RH  037%=      5-min Rain = 0
KLA1 092001Z 11008KT 30/13 A3013 RMK A01 T02970133  RH  037%=      5-min Rain = 0
KLA1 092002Z 13012KT 30/14 A3013 RMK A01 T02980136  RH  037%=      5-min Rain = 0
KLA1 092003Z 12011KT 30/14 A3013 RMK A01 T02980140  RH  038%=      5-min Rain = 0
KLA1 092004Z 11009KT 30/14 A3013 RMK A01 T02990139  RH  037%=      5-min Rain = 0
KLA1 092005Z 12010KT 30/14 A3013 RMK A01 T03000136  RH  037%=      5-min Rain = 0
KLA1 092006Z 12008KT 30/14 A3013 RMK A01 T02990137  RH  037%=      5-min Rain = 0
KLA1 092007Z 13006G11KT 30/14 A3012 RMK A01 T02980138  RH  038%=      5-min Rain = 0
KLA1 092008Z 11008KT 30/14 A3012 RMK A01 T02980139  RH  038%=      5-min Rain = 0
KLA1 092009Z 10007KT 30/14 A3012 RMK A01 T02990139  RH  037%=      5-min Rain = 0
KLA1 092010Z 04003KT 30/14 A3012 RMK A01 T02990139  RH  038%=      5-min Rain = 0
KLA1 092011Z 03002KT 30/14 A3012 RMK A01 T02980138  RH  038%=      5-min Rain = 0
KLA1 092012Z 11003KT 30/14 A3012 RMK A01 T02980140  RH  038%=      5-min Rain = 0
KLA1 092013Z 15007KT 30/14 A3012 RMK A01 T02980140  RH  038%=      5-min Rain = 0
KLA1 092014Z 17002KT 30/14 A3012 RMK A01 T02990140  RH  038%=      5-min Rain = 0
KLA1 092015Z 17004KT 30/14 A3012 RMK A01 T02990140  RH  038%=      5-min Rain = 0
KLA1 092016Z 17004KT 30/14 A3012 RMK A01 T02980141  RH  038%=      5-min Rain = 0
KLA1 092017Z 16006KT 30/14 A3011 RMK A01 T02990139  RH  037%=      5-min Rain = 0
KLA1 092018Z 17010KT 30/14 A3011 RMK A01 T03000135  RH  037%=      5-min Rain = 0
KLA1 092019Z 18011KT 30/13 A3011 RMK A01 T03020133  RH  036%=      5-min Rain = 0
KLA1 092020Z 18009KT 30/14 A3011 RMK A01 T03030136  RH  036%=      5-min Rain = 0
KLA1 092021Z 17008KT 31/14 A3011 RMK A01 T03050138  RH  036%=      5-min Rain = 0
KLA1 092022Z 14010KT 31/14 A3011 RMK A01 T03100139  RH  035%=      5-min Rain = 0
KLA1 092023Z 12008KT 31/14 A3011 RMK A01 T03130137  RH  034%=      5-min Rain = 0
KLA1 092024Z 13011KT 31/14 A3011 RMK A01 T03140135  RH  034%=      5-min Rain = 0
KLA1 092025Z 13010KT 31/13 A3011 RMK A01 T03090133  RH  034%=      5-min Rain = 0
KLA1 092026Z 13008KT 31/13 A3011 RMK A01 T03070134  RH  035%=      5-min Rain = 0
KLA1 092027Z 14006KT 31/13 A3011 RMK A01 T03060132  RH  035%=      5-min Rain = 0
KLA1 092028Z 13005KT 30/13 A3011 RMK A01 T03030134  RH  035%=      5-min Rain = 0
KLA1 092029Z 12006KT 31/14 A3011 RMK A01 T03050137  RH  036%=      5-min Rain = 0
KLA1 092030Z 11006KT 31/14 A3011 RMK A01 T03070137  RH  035%=      5-min Rain = 0
KLA1 092031Z 09004KT 31/14 A3011 RMK A01 T03060137  RH  036%=      5-min Rain = 0
KLA1 092032Z 11005G10KT 31/14 A3011 RMK A01 T03050136  RH  036%=      5-min Rain = 0
KLA1 092033Z 12004G9KT 30/14 A3011 RMK A01 T03040137  RH  036%=      5-min Rain = 0
KLA1 092034Z 14007KT 31/14 A3011 RMK A01 T03050137  RH  036%=      5-min Rain = 0
KLA1 092035Z 15009KT 31/13 A3011 RMK A01 T03060132  RH  034%=      5-min Rain = 0
KLA1 092036Z 15009KT 31/13 A3011 RMK A01 T03080134  RH  035%=      5-min Rain = 0
KLA1 092037Z 14009KT 31/14 A3011 RMK A01 T03100138  RH  035%=      5-min Rain = 0
KLA1 092038Z 14008KT 31/14 A3011 RMK A01 T03120138  RH  035%=      5-min Rain = 0
KLA1 092039Z 11006KT 31/14 A3011 RMK A01 T03120140  RH  035%=      5-min Rain = 0
KLA1 092040Z 15007KT 31/14 A3011 RMK A01 T03120140  RH  035%=      5-min Rain = 0
KLA1 092041Z 11011KT 31/14 A3011 RMK A01 T03120138  RH  035%=      5-min Rain = 0
KLA1 092042Z 12011KT 31/13 A3011 RMK A01 T03110132  RH  034%=      5-min Rain = 0
KLA1 092043Z 12009KT 31/13 A3011 RMK A01 T03100127  RH  033%=      5-min Rain = 0
KLA1 092044Z 11007KT 31/13 A3011 RMK A01 T03080127  RH  033%=      5-min Rain = 0
KLA1 092045Z 11005KT 31/13 A301 RMK A01 T03060127  RH  033%=      5-min Rain = 0
KLA1 092046Z 12011KT 31/13 A301 RMK A01 T03050134  RH  035%=      5-min Rain = 0
KLA1 092047Z 11009KT 31/13 A301 RMK A01 T03070132  RH  034%=      5-min Rain = 0
KLA1 092048Z 11008KT 31/13 A301 RMK A01 T03060133  RH  035%=      5-min Rain = 0
KLA1 092049Z 13005KT 31/14 A301 RMK A01 T03060136  RH  035%=      5-min Rain = 0
KLA1 092050Z 15005KT 31/14 A301 RMK A01 T03080136  RH  035%=      5-min Rain = 0
KLA1 092051Z 16004KT 31/14 A301 RMK A01 T03100137  RH  035%=      5-min Rain = 0
KLA1 092052Z 14004G9KT 31/14 A301 RMK A01 T03130139  RH  035%=      5-min Rain = 0
KLA1 092053Z 18005KT 31/14 A301 RMK A01 T03130139  RH  035%=      5-min Rain = 0
KLA1 092054Z 18004KT 31/14 A301 RMK A01 T03120139  RH  035%=      5-min Rain = 0
KLA1 092055Z 19006KT 31/14 A301 RMK A01 T03110138  RH  035%=      5-min Rain = 0
KLA1 092056Z 17006KT 31/14 A301 RMK A01 T03090139  RH  035%=      5-min Rain = 0
KLA1 092057Z 16005KT 31/14 A301 RMK A01 T03120139  RH  035%=      5-min Rain = 0
KLA1 092058Z 14007KT 32/14 A301 RMK A01 T03150136  RH  034%=      5-min Rain = 0
KLA1 092059Z 16010G15KT 32/14 A301 RMK A01 T03160135  RH  033%=      5-min Rain = 0
KLA1 092100Z 16012G18KT 32/14 A301 RMK A01 T03190135  RH  033%=      5-min Rain = 0
KLA1 092101Z 17010KT 32/13 A301 RMK A01 T03210134  RH  032%=      5-min Rain = 0
KLA1 092102Z 17011KT 32/13 A301 RMK A01 T03190134  RH  033%=      5-min Rain = 0
KLA1 092103Z 17011KT 32/14 A301 RMK A01 T03160135  RH  033%=      5-min Rain = 0
KLA1 092104Z 18011KT 32/13 A301 RMK A01 T03150134  RH  033%=      5-min Rain = 0
KLA1 092105Z 15010KT 31/14 A301 RMK A01 T03130136  RH  034%=      5-min Rain = 0
KLA1 092106Z 16008KT 31/14 A301 RMK A01 T03120135  RH  034%=      5-min Rain = 0
KLA1 092107Z 16010KT 31/14 A301 RMK A01 T03140135  RH  034%=      5-min Rain = 0
KLA1 092108Z 14007KT 31/14 A301 RMK A01 T03140138  RH  034%=      5-min Rain = 0
KLA1 092109Z 15007KT 32/14 A301 RMK A01 T03150137  RH  034%=      5-min Rain = 0
KLA1 092110Z 15004KT 32/14 A301 RMK A01 T03160137  RH  034%=      5-min Rain = 0
KLA1 092111Z 15007KT 32/14 A301 RMK A01 T03150136  RH  034%=      5-min Rain = 0
KLA1 092112Z 15005KT 31/13 A301 RMK A01 T03120133  RH  033%=      5-min Rain = 0
KLA1 092113Z 16007KT 31/13 A301 RMK A01 T03110134  RH  034%=      5-min Rain = 0
KLA1 092114Z 19008KT 31/13 A3009 RMK A01 T03130133  RH  033%=      5-min Rain = 0
KLA1 092115Z 17005KT 31/13 A3009 RMK A01 T03120131  RH  033%=      5-min Rain = 0
KLA1 092116Z 15007KT 31/13 A301 RMK A01 T03110133  RH  034%=      5-min Rain = 0
KLA1 092117Z 15008KT 31/13 A3009 RMK A01 T03120131  RH  033%=      5-min Rain = 0
KLA1 092118Z 13010KT 31/13 A3009 RMK A01 T03120134  RH  034%=      5-min Rain = 0
KLA1 092119Z 14010KT 31/13 A3009 RMK A01 T03120134  RH  034%=      5-min Rain = 0
KLA1 092120Z 13009KT 31/13 A3009 RMK A01 T03120133  RH  034%=      5-min Rain = 0
KLA1 092121Z 13010G15KT 31/13 A3009 RMK A01 T03120132  RH  033%=      5-min Rain = 0
KLA1 092122Z 12006KT 31/13 A3009 RMK A01 T03120133  RH  034%=      5-min Rain = 0
KLA1 092123Z 11008KT 31/13 A3009 RMK A01 T03130133  RH  033%=      5-min Rain = 0
KLA1 092124Z 11005KT 31/13 A3009 RMK A01 T03130133  RH  033%=      5-min Rain = 0
KLA1 092125Z 08003KT 31/13 A3009 RMK A01 T03130132  RH  033%=      5-min Rain = 0
KLA1 092126Z 12007KT 31/13 A3009 RMK A01 T03120134  RH  034%=      5-min Rain = 0
KLA1 092127Z 13005KT 31/13 A3009 RMK A01 T03110132  RH  034%=      5-min Rain = 0
KLA1 092128Z 18010KT 31/13 A3009 RMK A01 T03100128  RH  033%=      5-min Rain = 0
KLA1 092129Z 18008KT 31/13 A3009 RMK A01 T03100126  RH  032%=      5-min Rain = 0
KLA1 092130Z 16009KT 31/13 A3009 RMK A01 T03100127  RH  033%=      5-min Rain = 0
KLA1 092131Z 14011KT 31/13 A3009 RMK A01 T03100128  RH  033%=      5-min Rain = 0
KLA1 092132Z 14012KT 31/13 A3009 RMK A01 T03120128  RH  033%=      5-min Rain = 0
KLA1 092133Z 17007G12KT 31/13 A3009 RMK A01 T03130128  RH  032%=      5-min Rain = 0
KLA1 092134Z 15006KT 31/13 A3009 RMK A01 T03120130  RH  033%=      5-min Rain = 0
KLA1 092135Z 14008KT 31/13 A3009 RMK A01 T03110129  RH  033%=      5-min Rain = 0
KLA1 092136Z 14010KT 31/13 A3009 RMK A01 T03130127  RH  032%=      5-min Rain = 0
KLA1 092137Z 15006KT 31/13 A3009 RMK A01 T03120128  RH  033%=      5-min Rain = 0
KLA1 092138Z 19008KT 31/13 A3009 RMK A01 T03140128  RH  032%=      5-min Rain = 0
KLA1 092139Z 18010KT 32/13 A3008 RMK A01 T03150127  RH  032%=      5-min Rain = 0
KLA1 092140Z 16012KT 32/13 A3008 RMK A01 T03150129  RH  032%=      5-min Rain = 0
KLA1 092141Z 17010KT 31/13 A3009 RMK A01 T03140129  RH  032%=      5-min Rain = 0
KLA1 092142Z 15008KT 31/13 A3009 RMK A01 T03130130  RH  033%=      5-min Rain = 0
KLA1 092143Z 15010KT 32/13 A3009 RMK A01 T03160129  RH  032%=      5-min Rain = 0
KLA1 092144Z 17006KT 32/13 A3008 RMK A01 T03160127  RH  032%=      5-min Rain = 0
KLA1 092145Z 17009KT 32/13 A3008 RMK A01 T03160127  RH  032%=      5-min Rain = 0
KLA1 092146Z 17009KT 32/13 A3008 RMK A01 T03160125  RH  031%=      5-min Rain = 0
KLA1 092147Z 15007KT 31/12 A3008 RMK A01 T03140123  RH  031%=      5-min Rain = 0
KLA1 092148Z 12006KT 31/12 A3008 RMK A01 T03130124  RH  031%=      5-min Rain = 0
KLA1 092149Z 17007KT 31/12 A3008 RMK A01 T03130123  RH  031%=      5-min Rain = 0
KLA1 092150Z 13009KT 31/13 A3008 RMK A01 T03140125  RH  031%=      5-min Rain = 0
KLA1 092151Z 12009KT 32/13 A3008 RMK A01 T03150126  RH  032%=      5-min Rain = 0
KLA1 092152Z 12007KT 31/13 A3008 RMK A01 T03140129  RH  032%=      5-min Rain = 0
KLA1 092153Z 12004KT 31/13 A3008 RMK A01 T03140129  RH  032%=      5-min Rain = 0
KLA1 092154Z 15004KT 31/13 A3008 RMK A01 T03130129  RH  033%=      5-min Rain = 0
KLA1 092155Z 14006KT 31/13 A3008 RMK A01 T03120129  RH  033%=      5-min Rain = 0
KLA1 092156Z 13005KT 31/13 A3008 RMK A01 T03130126  RH  032%=      5-min Rain = 0
KLA1 092157Z 12008G13KT 31/13 A3008 RMK A01 T03130128  RH  032%=      5-min Rain = 0
KLA1 092158Z 11011KT 32/12 A3008 RMK A01 T03150124  RH  031%=      5-min Rain = 0
KLA1 092159Z 12009KT 32/12 A3008 RMK A01 T03170123  RH  031%=      5-min Rain = 0
KLA1 092200Z 11006KT 32/12 A3008 RMK A01 T03160122  RH  031%=      5-min Rain = 0
KLA1 092201Z 14009KT 32/12 A3008 RMK A01 T03150122  RH  031%=      5-min Rain = 0
KLA1 092202Z 13011KT 32/12 A3008 RMK A01 T03160123  RH  031%=      5-min Rain = 0
KLA1 092203Z 14011KT 32/13 A3008 RMK A01 T03170126  RH  031%=      5-min Rain = 0
KLA1 092204Z 14007KT 32/13 A3008 RMK A01 T03170127  RH  031%=      5-min Rain = 0
KLA1 092205Z 15007KT 32/13 A3008 RMK A01 T03160127  RH  032%=      5-min Rain = 0
KLA1 092206Z 15007KT 32/13 A3008 RMK A01 T03160127  RH  031%=      5-min Rain = 0
KLA1 092207Z 15007KT 32/13 A3008 RMK A01 T03160126  RH  031%=      5-min Rain = 0
KLA1 092208Z 16008KT 32/13 A3008 RMK A01 T03150125  RH  031%=      5-min Rain = 0
KLA1 092209Z 18006KT 31/12 A3008 RMK A01 T03130123  RH  031%=      5-min Rain = 0
KLA1 092210Z 17004KT 31/13 A3008 RMK A01 T03110125  RH  032%=      5-min Rain = 0
KLA1 092211Z 16003KT 31/12 A3008 RMK A01 T03110123  RH  032%=      5-min Rain = 0
KLA1 092212Z 15002KT 31/13 A3008 RMK A01 T03120125  RH  032%=      5-min Rain = 0
KLA1 092213Z 15006KT 31/13 A3008 RMK A01 T03140126  RH  032%=      5-min Rain = 0
KLA1 092214Z 18007KT 32/13 A3007 RMK A01 T03150127  RH  032%=      5-min Rain = 0
KLA1 092215Z 16011G19KT 32/13 A3007 RMK A01 T03150127  RH  032%=      5-min Rain = 0
KLA1 092216Z 14013G19KT 32/13 A3007 RMK A01 T03150129  RH  032%=      5-min Rain = 0
KLA1 092217Z 14011KT 32/13 A3008 RMK A01 T03160127  RH  032%=      5-min Rain = 0
KLA1 092218Z 15011KT 32/13 A3007 RMK A01 T03160127  RH  032%=      5-min Rain = 0
KLA1 092219Z 16010KT 32/13 A3007 RMK A01 T03160127  RH  032%=      5-min Rain = 0
KLA1 092220Z 14010KT 32/13 A3007 RMK A01 T03170126  RH  031%=      5-min Rain = 0
KLA1 092221Z 14010KT 32/13 A3007 RMK A01 T03180126  RH  031%=      5-min Rain = 0
KLA1 092222Z 13007KT 32/13 A3007 RMK A01 T03160128  RH  032%=      5-min Rain = 0
KLA1 092223Z 14009KT 32/13 A3007 RMK A01 T03160128  RH  032%=      5-min Rain = 0
KLA1 092224Z 14010KT 32/13 A3007 RMK A01 T03160126  RH  031%=      5-min Rain = 0
KLA1 092225Z 15008KT 32/13 A3007 RMK A01 T03160125  RH  031%=      5-min Rain = 0
KLA1 092226Z 14006KT 32/12 A3007 RMK A01 T03150124  RH  031%=      5-min Rain = 0
KLA1 092227Z 15005KT 31/12 A3007 RMK A01 T03140124  RH  031%=      5-min Rain = 0
KLA1 092228Z 16004KT 31/13 A3007 RMK A01 T03130126  RH  032%=      5-min Rain = 0
KLA1 092229Z 14003KT 31/13 A3007 RMK A01 T03130126  RH  032%=      5-min Rain = 0
KLA1 092230Z 16002KT 31/13 A3007 RMK A01 T03120126  RH  032%=      5-min Rain = 0
KLA1 092231Z 14005KT 31/13 A3007 RMK A01 T03130126  RH  032%=      5-min Rain = 0
KLA1 092232Z 14008KT 31/13 A3007 RMK A01 T03130127  RH  032%=      5-min Rain = 0
KLA1 092233Z 16008KT 31/13 A3007 RMK A01 T03140126  RH  032%=      5-min Rain = 0
KLA1 092234Z 15008KT 32/13 A3007 RMK A01 T03150126  RH  031%=      5-min Rain = 0
KLA1 092235Z 17007KT 32/13 A3007 RMK A01 T03160126  RH  031%=      5-min Rain = 0
KLA1 092236Z 16011G21KT 32/13 A3007 RMK A01 T03180126  RH  031%=      5-min Rain = 0
KLA1 092237Z 12010G15KT 32/13 A3007 RMK A01 T03190126  RH  031%=      5-min Rain = 0
KLA1 092238Z 12008KT 32/13 A3007 RMK A01 T03180125  RH  031%=      5-min Rain = 0
KLA1 092239Z 12006KT 32/12 A3007 RMK A01 T03150124  RH  031%=      5-min Rain = 0
KLA1 092240Z 10006KT 31/12 A3007 RMK A01 T03130124  RH  031%=      5-min Rain = 0
KLA1 092241Z 13005KT 31/13 A3007 RMK A01 T03130125  RH  032%=      5-min Rain = 0
KLA1 092242Z 14004KT 31/13 A3007 RMK A01 T03130126  RH  032%=      5-min Rain = 0
KLA1 092243Z 15005KT 32/13 A3007 RMK A01 T03150125  RH  031%=      5-min Rain = 0
KLA1 092244Z 15010KT 32/12 A3007 RMK A01 T03160122  RH  030%=      5-min Rain = 0
KLA1 092245Z 13010KT 32/12 A3007 RMK A01 T03150120  RH  030%=      5-min Rain = 0
KLA1 092246Z 14010KT 32/12 A3007 RMK A01 T03150120  RH  030%=      5-min Rain = 0
KLA1 092247Z 15008KT 32/12 A3007 RMK A01 T03150120  RH  030%=      5-min Rain = 0
KLA1 092248Z 17008KT 32/12 A3007 RMK A01 T03150120  RH  030%=      5-min Rain = 0
KLA1 092249Z 16010KT 32/12 A3007 RMK A01 T03160119  RH  030%=      5-min Rain = 0
KLA1 092250Z 17010KT 32/12 A3007 RMK A01 T03160120  RH  030%=      5-min Rain = 0
KLA1 092251Z 16006KT 31/12 A3007 RMK A01 T03140121  RH  031%=      5-min Rain = 0
KLA1 092252Z 15009KT 31/12 A3007 RMK A01 T03130122  RH  031%=      5-min Rain = 0
KLA1 092253Z 15009KT 31/13 A3006 RMK A01 T03140126  RH  032%=      5-min Rain = 0
KLA1 092254Z 16011KT 32/13 A3006 RMK A01 T03160127  RH  031%=      5-min Rain = 0
KLA1 092255Z 15008KT 32/13 A3006 RMK A01 T03150126  RH  032%=      5-min Rain = 0
KLA1 092256Z 16008KT 32/13 A3006 RMK A01 T03150125  RH  031%=      5-min Rain = 0
KLA1 092257Z 16007KT 32/12 A3006 RMK A01 T03150124  RH  031%=      5-min Rain = 0
KLA1 092258Z 13008KT 31/12 A3007 RMK A01 T03140124  RH  031%=      5-min Rain = 0
KLA1 092259Z 10006KT 31/13 A3007 RMK A01 T03140125  RH  031%=      5-min Rain = 0
KLA1 092300Z 13006KT 31/12 A3007 RMK A01 T03140124  RH  031%=      5-min Rain = 0
KLA1 092301Z 13006KT 32/13 A3007 RMK A01 T03150125  RH  031%=      5-min Rain = 0
KLA1 092302Z 13009KT 32/13 A3006 RMK A01 T03160125  RH  031%=      5-min Rain = 0
KLA1 092303Z 13009KT 32/13 A3007 RMK A01 T03160125  RH  031%=      5-min Rain = 0
KLA1 092304Z 13009KT 32/12 A3007 RMK A01 T03170123  RH  031%=      5-min Rain = 0
KLA1 092305Z 15010KT 32/12 A3007 RMK A01 T03170122  RH  030%=      5-min Rain = 0
KLA1 092306Z 16009G15KT 32/12 A3006 RMK A01 T03160121  RH  030%=      5-min Rain = 0
KLA1 092307Z 13013G20KT 32/12 A3006 RMK A01 T03160121  RH  030%=      5-min Rain = 0
KLA1 092308Z 12007KT 32/12 A3007 RMK A01 T03160120  RH  030%=      5-min Rain = 0
KLA1 092309Z 12005KT 31/12 A3006 RMK A01 T03140121  RH  031%=      5-min Rain = 0
KLA1 092310Z 14008KT 31/12 A3006 RMK A01 T03140121  RH  031%=      5-min Rain = 0
KLA1 092311Z 15008KT 31/12 A3006 RMK A01 T03140120  RH  030%=      5-min Rain = 0
KLA1 092312Z 15008KT 32/12 A3006 RMK A01 T03150121  RH  031%=      5-min Rain = 0
KLA1 092313Z 16009KT 31/12 A3006 RMK A01 T03140120  RH  030%=      5-min Rain = 0
KLA1 092314Z 16008KT 32/12 A3006 RMK A01 T03150121  RH  031%=      5-min Rain = 0
KLA1 092315Z 15008KT 31/12 A3006 RMK A01 T03140120  RH  030%=      5-min Rain = 0
KLA1 092316Z 12005KT 31/12 A3006 RMK A01 T03120120  RH  031%=      5-min Rain = 0
KLA1 092317Z 11006KT 31/12 A3006 RMK A01 T03110119  RH  031%=      5-min Rain = 0
KLA1 092318Z 13007KT 31/12 A3006 RMK A01 T03100118  RH  031%=      5-min Rain = 0
KLA1 092319Z 12008KT 31/12 A3006 RMK A01 T03100118  RH  031%=      5-min Rain = 0
KLA1 092320Z 13007KT 31/12 A3006 RMK A01 T03090117  RH  031%=      5-min Rain = 0
KLA1 092321Z 12007KT 31/12 A3006 RMK A01 T03070117  RH  031%=      5-min Rain = 0
KLA1 092322Z 11006KT 31/12 A3006 RMK A01 T03070118  RH  031%=      5-min Rain = 0
KLA1 092323Z 09006KT 31/12 A3006 RMK A01 T03070118  RH  031%=      5-min Rain = 0
KLA1 092324Z 08007KT 31/12 A3006 RMK A01 T03060118  RH  031%=      5-min Rain = 0
KLA1 092325Z 10006KT 31/12 A3006 RMK A01 T03060120  RH  032%=      5-min Rain = 0
KLA1 092326Z 13008KT 31/12 A3006 RMK A01 T03060120  RH  032%=      5-min Rain = 0
KLA1 092327Z 13006KT 31/12 A3006 RMK A01 T03060119  RH  032%=      5-min Rain = 0
KLA1 092328Z 14009KT 31/12 A3006 RMK A01 T03070119  RH  032%=      5-min Rain = 0
KLA1 092329Z 14008KT 31/12 A3006 RMK A01 T03060117  RH  031%=      5-min Rain = 0
KLA1 092330Z 15006KT 31/12 A3006 RMK A01 T03060117  RH  031%=      5-min Rain = 0
KLA1 092331Z 15003KT 31/12 A3006 RMK A01 T03060116  RH  031%=      5-min Rain = 0
KLA1 092332Z 15004KT 31/12 A3006 RMK A01 T03060117  RH  031%=      5-min Rain = 0
KLA1 092333Z 16005KT 31/12 A3006 RMK A01 T03050118  RH  032%=      5-min Rain = 0
KLA1 092334Z 15006KT 31/12 A3006 RMK A01 T03050117  RH  032%=      5-min Rain = 0
KLA1 092335Z 14006KT 30/12 A3006 RMK A01 T03040118  RH  032%=      5-min Rain = 0
KLA1 092336Z 14006KT 30/12 A3006 RMK A01 T03040118  RH  032%=      5-min Rain = 0
KLA1 092337Z 15005KT 30/12 A3006 RMK A01 T03030119  RH  032%=      5-min Rain = 0
KLA1 092338Z 16004KT 30/12 A3006 RMK A01 T03040119  RH  032%=      5-min Rain = 0
KLA1 092339Z 14005KT 30/12 A3006 RMK A01 T03040120  RH  032%=      5-min Rain = 0
KLA1 092340Z 14007KT 31/12 A3006 RMK A01 T03050122  RH  032%=      5-min Rain = 0
KLA1 092341Z 14008KT 31/12 A3006 RMK A01 T03060121  RH  032%=      5-min Rain = 0
KLA1 092342Z 13008KT 31/12 A3006 RMK A01 T03070121  RH  032%=      5-min Rain = 0
KLA1 092343Z 13005KT 31/12 A3006 RMK A01 T03060121  RH  032%=      5-min Rain = 0
KLA1 092344Z 14005KT 31/12 A3006 RMK A01 T03050121  RH  032%=      5-min Rain = 0
KLA1 092345Z 14007KT 31/12 A3006 RMK A01 T03050120  RH  032%=      5-min Rain = 0
KLA1 092346Z 15007G12KT 30/12 A3006 RMK A01 T03040119  RH  032%=      5-min Rain = 0
KLA1 092347Z 14009KT 30/12 A3006 RMK A01 T03030118  RH  032%=      5-min Rain = 0
KLA1 092348Z 14008KT 30/12 A3006 RMK A01 T03030117  RH  032%=      5-min Rain = 0
KLA1 092349Z 13009KT 30/12 A3006 RMK A01 T03020117  RH  032%=      5-min Rain = 0
KLA1 092350Z 14008KT 30/12 A3006 RMK A01 T03010116  RH  032%=      5-min Rain = 0
KLA1 092351Z 14008KT 30/12 A3006 RMK A01 T03010117  RH  032%=      5-min Rain = 0
KLA1 092352Z 13007KT 30/12 A3006 RMK A01 T03010116  RH  032%=      5-min Rain = 0
KLA1 092353Z 12010KT 30/12 A3006 RMK A01 T03010117  RH  032%=      5-min Rain = 0
KLA1 092354Z 12008KT 30/12 A3006 RMK A01 T03010116  RH  032%=      5-min Rain = 0
KLA1 092355Z 12009KT 30/12 A3006 RMK A01 T03000116  RH  032%=      5-min Rain = 0
KLA1 092356Z 12009KT 30/12 A3006 RMK A01 T03010116  RH  032%=      5-min Rain = 0
KLA1 092357Z 11006KT 30/12 A3006 RMK A01 T03010116  RH  032%=      5-min Rain = 0
KLA1 092358Z 11006KT 30/12 A3006 RMK A01 T03010116  RH  032%=      5-min Rain = 0
KLA1 092359Z 11005KT 30/12 A3006 RMK A01 T03000116  RH  032%=      5-min Rain = 0
KLA1 100000Z 12007KT 30/12 A3006 RMK A01 T03000116  RH  032%=      5-min Rain = 0
KLA1 100001Z 11005KT 30/12 A3006 RMK A01 T03000116  RH  032%=      5-min Rain = 0
KLA1 100002Z 12005KT 30/12 A3006 RMK A01 T03000116  RH  032%=      5-min Rain = 0
KLA1 100003Z 13006KT 30/12 A3006 RMK A01 T02990115  RH  032%=      5-min Rain = 0
KLA1 100004Z 12006KT 30/12 A3007 RMK A01 T02980115  RH  032%=      5-min Rain = 0
KLA1 100005Z 13005KT 30/12 A3007 RMK A01 T02980115  RH  032%=      5-min Rain = 0
KLA1 100006Z 13005KT 30/12 A3007 RMK A01 T02970115  RH  032%=      5-min Rain = 0
KLA1 100007Z 12004KT 30/12 A3007 RMK A01 T02960115  RH  033%=      5-min Rain = 0
KLA1 100008Z 11004KT 30/12 A3007 RMK A01 T02960115  RH  033%=      5-min Rain = 0
KLA1 100009Z 12005KT 30/12 A3007 RMK A01 T02960115  RH  033%=      5-min Rain = 0
KLA1 100010Z 12005KT 30/12 A3007 RMK A01 T02960115  RH  033%=      5-min Rain = 0
KLA1 100011Z 13005KT 30/12 A3007 RMK A01 T02960115  RH  033%=      5-min Rain = 0
KLA1 100012Z 13006KT 30/11 A3007 RMK A01 T02950114  RH  033%=      5-min Rain = 0
KLA1 100013Z 14008KT 30/11 A3006 RMK A01 T02950114  RH  033%=      5-min Rain = 0
KLA1 100014Z 14008KT 30/11 A3007 RMK A01 T02950113  RH  032%=      5-min Rain = 0
KLA1 100015Z 13007KT 30/11 A3007 RMK A01 T02950113  RH  033%=      5-min Rain = 0
KLA1 100016Z 12006KT 30/11 A3007 RMK A01 T02950114  RH  033%=      5-min Rain = 0
KLA1 100017Z 13006KT 30/11 A3007 RMK A01 T02950114  RH  033%=      5-min Rain = 0
KLA1 100018Z 13007KT 30/11 A3007 RMK A01 T02950114  RH  033%=      5-min Rain = 0
KLA1 100019Z 12007KT 30/11 A3007 RMK A01 T02950114  RH  033%=      5-min Rain = 0
KLA1 100020Z 12007KT 30/11 A3007 RMK A01 T02950114  RH  033%=      5-min Rain = 0
KLA1 100021Z 13005KT 30/11 A3007 RMK A01 T02950114  RH  033%=      5-min Rain = 0
KLA1 100022Z 13006KT 29/12 A3007 RMK A01 T02940115  RH  033%=      5-min Rain = 0
KLA1 100023Z 13006KT 29/11 A3007 RMK A01 T02940114  RH  033%=      5-min Rain = 0
KLA1 100024Z 14006KT 29/11 A3007 RMK A01 T02940114  RH  033%=      5-min Rain = 0
KLA1 100025Z 13007KT 29/11 A3007 RMK A01 T02940114  RH  033%=      5-min Rain = 0
KLA1 100026Z 13007KT 29/11 A3007 RMK A01 T02930114  RH  033%=      5-min Rain = 0
KLA1 100027Z 12006KT 29/11 A3007 RMK A01 T02930114  RH  033%=      5-min Rain = 0
KLA1 100028Z 12006KT 29/11 A3007 RMK A01 T02930114  RH  033%=      5-min Rain = 0
KLA1 100029Z 12005KT 29/11 A3006 RMK A01 T02930114  RH  033%=      5-min Rain = 0
KLA1 100030Z 12007KT 29/11 A3006 RMK A01 T02930114  RH  033%=      5-min Rain = 0
KLA1 100031Z 12007KT 29/11 A3006 RMK A01 T02930113  RH  033%=      5-min Rain = 0
KLA1 100032Z 11005KT 29/11 A3006 RMK A01 T02930112  RH  033%=      5-min Rain = 0
KLA1 100033Z 10005KT 29/11 A3006 RMK A01 T02930113  RH  033%=      5-min Rain = 0
KLA1 100034Z 12005KT 29/11 A3006 RMK A01 T02930112  RH  033%=      5-min Rain = 0
KLA1 100035Z 11005KT 29/11 A3006 RMK A01 T02930112  RH  033%=      5-min Rain = 0
KLA1 100036Z 11004KT 29/11 A3006 RMK A01 T02930113  RH  033%=      5-min Rain = 0
KLA1 100037Z 11005KT 29/11 A3006 RMK A01 T02930112  RH  033%=      5-min Rain = 0
KLA1 100038Z 12005KT 29/11 A3006 RMK A01 T02920112  RH  033%=      5-min Rain = 0
KLA1 100039Z 12004KT 29/11 A3006 RMK A01 T02920112  RH  033%=      5-min Rain = 0
KLA1 100040Z 12006KT 29/11 A3006 RMK A01 T02910112  RH  033%=      5-min Rain = 0
KLA1 100041Z 13005KT 29/11 A3006 RMK A01 T02910112  RH  033%=      5-min Rain = 0
KLA1 100042Z 13005KT 29/11 A3006 RMK A01 T02910113  RH  033%=      5-min Rain = 0
KLA1 100043Z 14005KT 29/11 A3007 RMK A01 T02900112  RH  033%=      5-min Rain = 0
KLA1 100044Z 13004KT 29/11 A3007 RMK A01 T02900113  RH  033%=      5-min Rain = 0
KLA1 100045Z 13004KT 29/11 A3007 RMK A01 T02890113  RH  033%=      5-min Rain = 0
KLA1 100046Z 12004KT 29/11 A3007 RMK A01 T02890113  RH  034%=      5-min Rain = 0
KLA1 100047Z 13004KT 29/11 A3007 RMK A01 T02880113  RH  034%=      5-min Rain = 0
KLA1 100048Z 12004KT 29/11 A3007 RMK A01 T02870113  RH  034%=      5-min Rain = 0
KLA1 100049Z 12004KT 29/11 A3007 RMK A01 T02860113  RH  034%=      5-min Rain = 0
KLA1 100050Z 12004KT 29/11 A3007 RMK A01 T02860114  RH  034%=      5-min Rain = 0
KLA1 100051Z 12004KT 29/11 A3007 RMK A01 T02860113  RH  034%=      5-min Rain = 0
KLA1 100052Z 12005KT 29/11 A3007 RMK A01 T02860113  RH  034%=      5-min Rain = 0
KLA1 100053Z 12005KT 29/11 A3007 RMK A01 T02850113  RH  034%=      5-min Rain = 0
KLA1 100054Z 12004KT 29/11 A3007 RMK A01 T02860113  RH  034%=      5-min Rain = 0
KLA1 100055Z 12004KT 29/11 A3007 RMK A01 T02850113  RH  034%=      5-min Rain = 0
KLA1 100056Z 12005KT 29/11 A3007 RMK A01 T02850113  RH  034%=      5-min Rain = 0
KLA1 100057Z 12005KT 29/11 A3007 RMK A01 T02850113  RH  034%=      5-min Rain = 0
KLA1 100058Z 13005KT 29/11 A3007 RMK A01 T02850113  RH  034%=      5-min Rain = 0
KLA1 100059Z 12004KT 29/11 A3007 RMK A01 T02850113  RH  035%=      5-min Rain = 0
KLA1 100100Z 12004KT 28/11 A3007 RMK A01 T02840114  RH  035%=      5-min Rain = 0
KLA1 100101Z 12004KT 28/11 A3007 RMK A01 T02830114  RH  035%=      5-min Rain = 0
KLA1 100102Z 12004KT 28/11 A3007 RMK A01 T02830114  RH  035%=      5-min Rain = 0
KLA1 100103Z 12004KT 28/11 A3007 RMK A01 T02820114  RH  035%=      5-min Rain = 0
KLA1 100104Z 12004KT 28/11 A3007 RMK A01 T02820114  RH  035%=      5-min Rain = 0
KLA1 100105Z 11004KT 28/11 A3007 RMK A01 T02810114  RH  035%=      5-min Rain = 0
KLA1 100106Z 12003KT 28/12 A3007 RMK A01 T02810115  RH  036%=      5-min Rain = 0
KLA1 100107Z 12003KT 28/12 A3007 RMK A01 T02800115  RH  036%=      5-min Rain = 0
KLA1 100108Z 12003KT 28/12 A3007 RMK A01 T02800115  RH  036%=      5-min Rain = 0
KLA1 100109Z 12003KT 28/12 A3007 RMK A01 T02790115  RH  036%=      5-min Rain = 0
KLA1 100110Z 12003KT 28/12 A3007 RMK A01 T02780115  RH  036%=      5-min Rain = 0
KLA1 100111Z 12003KT 28/12 A3007 RMK A01 T02780115  RH  036%=      5-min Rain = 0
KLA1 100112Z 11003KT 28/12 A3007 RMK A01 T02780115  RH  036%=      5-min Rain = 0
KLA1 100113Z 11003KT 28/12 A3007 RMK A01 T02770115  RH  036%=      5-min Rain = 0
KLA1 100114Z 12003KT 28/12 A3007 RMK A01 T02770115  RH  036%=      5-min Rain = 0
KLA1 100115Z 12003KT 28/12 A3007 RMK A01 T02770115  RH  036%=      5-min Rain = 0
KLA1 100116Z 12003KT 28/12 A3007 RMK A01 T02770115  RH  037%=      5-min Rain = 0
KLA1 100117Z 11003KT 28/12 A3007 RMK A01 T02770115  RH  037%=      5-min Rain = 0
KLA1 100118Z 11003KT 28/12 A3007 RMK A01 T02770115  RH  037%=      5-min Rain = 0
KLA1 100119Z 11003KT 28/12 A3007 RMK A01 T02760115  RH  037%=      5-min Rain = 0
KLA1 100120Z 11004KT 28/12 A3007 RMK A01 T02760115  RH  037%=      5-min Rain = 0
KLA1 100121Z 10003KT 28/11 A3007 RMK A01 T02760114  RH  036%=      5-min Rain = 0
KLA1 100122Z 10003KT 28/11 A3007 RMK A01 T02770114  RH  036%=      5-min Rain = 0
KLA1 100123Z 09005KT 28/11 A3007 RMK A01 T02770114  RH  036%=      5-min Rain = 0
KLA1 100124Z 09004KT 28/11 A3007 RMK A01 T02770114  RH  036%=      5-min Rain = 0
KLA1 100125Z 10004KT 28/11 A3007 RMK A01 T02780114  RH  036%=      5-min Rain = 0
KLA1 100126Z 10003KT 28/11 A3007 RMK A01 T02780114  RH  036%=      5-min Rain = 0
KLA1 100127Z 09003KT 28/12 A3007 RMK A01 T02790115  RH  036%=      5-min Rain = 0
KLA1 100128Z 09004KT 28/12 A3007 RMK A01 T02790115  RH  036%=      5-min Rain = 0
KLA1 100129Z 09004KT 28/12 A3007 RMK A01 T02780115  RH  036%=      5-min Rain = 0
KLA1 100130Z 09003KT 28/12 A3007 RMK A01 T02770115  RH  036%=      5-min Rain = 0
KLA1 100131Z 10004KT 28/12 A3007 RMK A01 T02780115  RH  036%=      5-min Rain = 0
KLA1 100132Z 10005KT 28/11 A3007 RMK A01 T02780114  RH  036%=      5-min Rain = 0
KLA1 100133Z 10004KT 28/11 A3007 RMK A01 T02780114  RH  036%=      5-min Rain = 0
KLA1 100134Z 09003KT 28/12 A3007 RMK A01 T02780115  RH  036%=      5-min Rain = 0
KLA1 100135Z 09004KT 28/11 A3007 RMK A01 T02780114  RH  036%=      5-min Rain = 0
KLA1 100136Z 09004KT 28/11 A3007 RMK A01 T02780114  RH  036%=      5-min Rain = 0
KLA1 100137Z 10004KT 28/12 A3007 RMK A01 T02780115  RH  036%=      5-min Rain = 0
KLA1 100138Z 09003KT 28/11 A3007 RMK A01 T02780114  RH  036%=      5-min Rain = 0
KLA1 100139Z 10004KT 28/11 A3007 RMK A01 T02790114  RH  036%=      5-min Rain = 0
KLA1 100140Z 09004KT 28/12 A3007 RMK A01 T02780115  RH  036%=      5-min Rain = 0
KLA1 100141Z 08004KT 28/12 A3007 RMK A01 T02770115  RH  036%=      5-min Rain = 0
KLA1 100142Z 09004KT 28/12 A3007 RMK A01 T02770116  RH  037%=      5-min Rain = 0
KLA1 100143Z 08004KT 28/12 A3007 RMK A01 T02750116  RH  037%=      5-min Rain = 0
KLA1 100144Z 07004KT 27/12 A3007 RMK A01 T02740115  RH  037%=      5-min Rain = 0
KLA1 100145Z 07004KT 27/12 A3007 RMK A01 T02740115  RH  037%=      5-min Rain = 0
KLA1 100146Z 07004KT 27/12 A3007 RMK A01 T02740115  RH  037%=      5-min Rain = 0
KLA1 100147Z 05004KT 27/12 A3007 RMK A01 T02730115  RH  037%=      5-min Rain = 0
KLA1 100148Z 06004KT 27/12 A3007 RMK A01 T02720115  RH  037%=      5-min Rain = 0
KLA1 100149Z 05004KT 27/11 A3007 RMK A01 T02720114  RH  037%=      5-min Rain = 0
KLA1 100150Z 06004KT 27/11 A3007 RMK A01 T02720114  RH  037%=      5-min Rain = 0
KLA1 100151Z 06004KT 27/12 A3007 RMK A01 T02720115  RH  038%=      5-min Rain = 0
KLA1 100152Z 05003KT 27/12 A3007 RMK A01 T02720115  RH  038%=      5-min Rain = 0
KLA1 100153Z 05003KT 27/12 A3007 RMK A01 T02710116  RH  038%=      5-min Rain = 0
KLA1 100154Z 05003KT 27/12 A3008 RMK A01 T02690116  RH  038%=      5-min Rain = 0
KLA1 100155Z 03003KT 27/12 A3008 RMK A01 T02680116  RH  039%=      5-min Rain = 0
KLA1 100156Z 05003KT 27/12 A3008 RMK A01 T02660116  RH  039%=      5-min Rain = 0
KLA1 100157Z 05004KT 26/12 A3008 RMK A01 T02640116  RH  040%=      5-min Rain = 0
KLA1 100158Z 06004KT 26/12 A3008 RMK A01 T02630116  RH  040%=      5-min Rain = 0
KLA1 100159Z 06005KT 26/12 A3008 RMK A01 T02630116  RH  040%=      5-min Rain = 0
KLA1 100200Z 06004KT 26/12 A3008 RMK A01 T02630115  RH  040%=      5-min Rain = 0
KLA1 100201Z 07005KT 26/12 A3008 RMK A01 T02630115  RH  040%=      5-min Rain = 0
KLA1 100202Z 08005KT 26/12 A3008 RMK A01 T02630115  RH  039%=      5-min Rain = 0
KLA1 100203Z 07004KT 27/11 A3008 RMK A01 T02650114  RH  039%=      5-min Rain = 0
KLA1 100204Z 07004KT 27/12 A3008 RMK A01 T02670115  RH  039%=      5-min Rain = 0
KLA1 100205Z 07004KT 27/12 A3008 RMK A01 T02680115  RH  038%=      5-min Rain = 0
KLA1 100206Z 06005KT 27/12 A3008 RMK A01 T02690115  RH  038%=      5-min Rain = 0
KLA1 100207Z 07004KT 27/12 A3008 RMK A01 T02700115  RH  038%=      5-min Rain = 0
KLA1 100208Z 07004KT 27/12 A3008 RMK A01 T02710115  RH  038%=      5-min Rain = 0
KLA1 100209Z 07005KT 27/12 A3008 RMK A01 T02720116  RH  038%=      5-min Rain = 0
KLA1 100210Z 06005KT 27/12 A3008 RMK A01 T02720116  RH  038%=      5-min Rain = 0
KLA1 100211Z 07005KT 27/12 A3008 RMK A01 T02730116  RH  038%=      5-min Rain = 0
KLA1 100212Z 07004KT 27/12 A3008 RMK A01 T02730116  RH  038%=      5-min Rain = 0
KLA1 100213Z 07004KT 27/12 A3008 RMK A01 T02730116  RH  038%=      5-min Rain = 0
KLA1 100214Z 07004KT 27/12 A3009 RMK A01 T02730116  RH  038%=      5-min Rain = 0
KLA1 100215Z 07005KT 27/12 A3009 RMK A01 T02730116  RH  038%=      5-min Rain = 0
KLA1 100216Z 07005KT 27/12 A3009 RMK A01 T02730116  RH  038%=      5-min Rain = 0
KLA1 100217Z 07004KT 27/12 A3009 RMK A01 T02720117  RH  038%=      5-min Rain = 0
KLA1 100218Z 07005KT 27/12 A3009 RMK A01 T02720116  RH  038%=      5-min Rain = 0
KLA1 100219Z 07004KT 27/12 A3009 RMK A01 T02730116  RH  038%=      5-min Rain = 0
KLA1 100220Z 08004KT 27/12 A3009 RMK A01 T02730116  RH  038%=      5-min Rain = 0
KLA1 100221Z 11003KT 27/12 A3009 RMK A01 T02730116  RH  038%=      5-min Rain = 0
KLA1 100222Z 16004KT 27/12 A3009 RMK A01 T02720116  RH  038%=      5-min Rain = 0
KLA1 100223Z 16006KT 27/12 A3009 RMK A01 T02670116  RH  039%=      5-min Rain = 0
KLA1 100224Z 16006KT 26/12 A3009 RMK A01 T02620115  RH  040%=      5-min Rain = 0
KLA1 100225Z 15006KT 26/12 A3009 RMK A01 T02590115  RH  040%=      5-min Rain = 0
KLA1 100226Z 14005KT 26/12 A3009 RMK A01 T02590115  RH  040%=      5-min Rain = 0
KLA1 100227Z 15006KT 26/12 A3009 RMK A01 T02600115  RH  040%=      5-min Rain = 0
KLA1 100228Z 14006KT 26/12 A3009 RMK A01 T02600115  RH  040%=      5-min Rain = 0
KLA1 100229Z 12006KT 26/12 A3009 RMK A01 T02600115  RH  040%=      5-min Rain = 0
KLA1 100230Z 12005KT 26/12 A3009 RMK A01 T02610115  RH  040%=      5-min Rain = 0
KLA1 100231Z 11005KT 26/12 A3009 RMK A01 T02620116  RH  040%=      5-min Rain = 0
KLA1 100232Z 10004KT 26/12 A3009 RMK A01 T02630116  RH  040%=      5-min Rain = 0
KLA1 100233Z 10005KT 26/12 A3009 RMK A01 T02630116  RH  040%=      5-min Rain = 0
KLA1 100234Z 10004KT 26/12 A3009 RMK A01 T02630116  RH  040%=      5-min Rain = 0
KLA1 100235Z 10004KT 26/12 A3009 RMK A01 T02630117  RH  040%=      5-min Rain = 0
KLA1 100236Z 10003KT 26/12 A3009 RMK A01 T02620116  RH  040%=      5-min Rain = 0
KLA1 100237Z 09004KT 26/12 A3009 RMK A01 T02620116  RH  040%=      5-min Rain = 0
KLA1 100238Z 08004KT 26/12 A3009 RMK A01 T02610116  RH  040%=      5-min Rain = 0
KLA1 100239Z 10004KT 26/12 A3009 RMK A01 T02610116  RH  040%=      5-min Rain = 0
KLA1 100240Z 09004KT 26/12 A3009 RMK A01 T02600116  RH  041%=      5-min Rain = 0
KLA1 100241Z 08004KT 26/12 A3009 RMK A01 T02600116  RH  040%=      5-min Rain = 0
KLA1 100242Z 08003KT 26/12 A3009 RMK A01 T02600116  RH  040%=      5-min Rain = 0
KLA1 100243Z 09003KT 26/12 A3009 RMK A01 T02600116  RH  040%=      5-min Rain = 0
KLA1 100244Z 09003KT 26/12 A3009 RMK A01 T02600116  RH  040%=      5-min Rain = 0
KLA1 100245Z 08003KT 26/12 A3009 RMK A01 T02600115  RH  040%=      5-min Rain = 0
KLA1 100246Z 08003KT 26/12 A3009 RMK A01 T02600116  RH  041%=      5-min Rain = 0
KLA1 100247Z 08003KT 26/12 A3009 RMK A01 T02590116  RH  041%=      5-min Rain = 0
KLA1 100248Z 08004KT 26/12 A3009 RMK A01 T02590116  RH  041%=      5-min Rain = 0
KLA1 100249Z 07004KT 26/12 A3009 RMK A01 T02580116  RH  041%=      5-min Rain = 0
KLA1 100250Z 08004KT 26/12 A3009 RMK A01 T02580115  RH  041%=      5-min Rain = 0
KLA1 100251Z 07004KT 26/12 A301 RMK A01 T02580115  RH  041%=      5-min Rain = 0
KLA1 100252Z 07005KT 26/12 A301 RMK A01 T02570115  RH  041%=      5-min Rain = 0
KLA1 100253Z 06007KT 26/11 A301 RMK A01 T02570114  RH  041%=      5-min Rain = 0
KLA1 100254Z 06007KT 26/11 A301 RMK A01 T02560113  RH  041%=      5-min Rain = 0
KLA1 100255Z 08009KT 26/11 A301 RMK A01 T02570108  RH  039%=      5-min Rain = 0
KLA1 100256Z 07009KT 26/11 A301 RMK A01 T02610106  RH  038%=      5-min Rain = 0
KLA1 100257Z 08008KT 27/11 A301 RMK A01 T02650105  RH  037%=      5-min Rain = 0
KLA1 100258Z 07008KT 27/10 A301 RMK A01 T02660104  RH  036%=      5-min Rain = 0
KLA1 100259Z 07009G14KT 27/10 A301 RMK A01 T02670104  RH  036%=      5-min Rain = 0
KLA1 100300Z 06008KT 27/10 A301 RMK A01 T02680103  RH  036%=      5-min Rain = 0
KLA1 100301Z 07008G13KT 27/10 A301 RMK A01 T02680103  RH  035%=      5-min Rain = 0
KLA1 100302Z 07009KT 27/10 A301 RMK A01 T02690103  RH  035%=      5-min Rain = 0
KLA1 100303Z 07008KT 27/10 A301 RMK A01 T02700103  RH  035%=      5-min Rain = 0
KLA1 100304Z 06009KT 27/10 A301 RMK A01 T02700102  RH  035%=      5-min Rain = 0
KLA1 100305Z 08010KT 27/10 A301 RMK A01 T02710103  RH  035%=      5-min Rain = 0
KLA1 100306Z 06009KT 27/10 A301 RMK A01 T02710103  RH  035%=      5-min Rain = 0
KLA1 100307Z 07009KT 27/10 A301 RMK A01 T02720103  RH  035%=      5-min Rain = 0
KLA1 100308Z 07010KT 27/10 A301 RMK A01 T02720103  RH  035%=      5-min Rain = 0
KLA1 100309Z 08008KT 27/10 A301 RMK A01 T02720102  RH  035%=      5-min Rain = 0
KLA1 100310Z 07006KT 27/10 A301 RMK A01 T02720102  RH  035%=      5-min Rain = 0
KLA1 100311Z 08008KT 27/10 A301 RMK A01 T02710103  RH  035%=      5-min Rain = 0
KLA1 100312Z 07010KT 27/10 A301 RMK A01 T02710104  RH  035%=      5-min Rain = 0
KLA1 100313Z 06009KT 27/11 A301 RMK A01 T02710105  RH  035%=      5-min Rain = 0
KLA1 100314Z 09012KT 27/11 A3011 RMK A01 T02720106  RH  035%=      5-min Rain = 0
KLA1 100315Z 07011KT 27/11 A3011 RMK A01 T02720106  RH  035%=      5-min Rain = 0
KLA1 100316Z 09007G12KT 27/11 A3011 RMK A01 T02720106  RH  035%=      5-min Rain = 0
KLA1 100317Z 07006KT 27/11 A3011 RMK A01 T02720106  RH  035%=      5-min Rain = 0
KLA1 100318Z 08011KT 27/11 A3011 RMK A01 T02720106  RH  035%=      5-min Rain = 0
KLA1 100319Z 08007KT 27/11 A3011 RMK A01 T02710105  RH  036%=      5-min Rain = 0
KLA1 100320Z 07006KT 27/11 A3011 RMK A01 T02700106  RH  036%=      5-min Rain = 0
KLA1 100321Z 06006G11KT 27/11 A3011 RMK A01 T02690105  RH  036%=      5-min Rain = 0
KLA1 100322Z 07007KT 27/11 A3011 RMK A01 T02680105  RH  036%=      5-min Rain = 0
KLA1 100323Z 07008KT 27/11 A3011 RMK A01 T02670105  RH  036%=      5-min Rain = 0
KLA1 100324Z 07009KT 27/11 A3011 RMK A01 T02670105  RH  036%=      5-min Rain = 0
KLA1 100325Z 07010KT 27/11 A3011 RMK A01 T02670106  RH  036%=      5-min Rain = 0
KLA1 100326Z 06009KT 27/11 A3011 RMK A01 T02670105  RH  036%=      5-min Rain = 0
KLA1 100327Z 06010KT 27/11 A3011 RMK A01 T02670106  RH  037%=      5-min Rain = 0
KLA1 100328Z 07009KT 27/11 A3011 RMK A01 T02660106  RH  037%=      5-min Rain = 0
KLA1 100329Z 07008KT 27/11 A3011 RMK A01 T02660106  RH  037%=      5-min Rain = 0
KLA1 100330Z 07009KT 27/11 A3011 RMK A01 T02660107  RH  037%=      5-min Rain = 0
KLA1 100331Z 07008KT 27/11 A3011 RMK A01 T02650106  RH  037%=      5-min Rain = 0
KLA1 100332Z 07009KT 27/11 A3011 RMK A01 T02650106  RH  037%=      5-min Rain = 0
KLA1 100333Z 07007KT 27/11 A3012 RMK A01 T02650106  RH  037%=      5-min Rain = 0
KLA1 100334Z 07007KT 26/11 A3011 RMK A01 T02640106  RH  037%=      5-min Rain = 0
KLA1 100335Z 07008KT 26/11 A3012 RMK A01 T02640106  RH  037%=      5-min Rain = 0
KLA1 100336Z 07008KT 26/11 A3012 RMK A01 T02630106  RH  037%=      5-min Rain = 0
KLA1 100337Z 07010KT 26/11 A3012 RMK A01 T02630106  RH  037%=      5-min Rain = 0
KLA1 100338Z 07010KT 26/11 A3012 RMK A01 T02630107  RH  037%=      5-min Rain = 0
KLA1 100339Z 08007KT 26/11 A3012 RMK A01 T02630106  RH  037%=      5-min Rain = 0
KLA1 100340Z 07008KT 26/11 A3012 RMK A01 T02620106  RH  038%=      5-min Rain = 0
KLA1 100341Z 07008KT 26/11 A3012 RMK A01 T02620106  RH  038%=      5-min Rain = 0
KLA1 100342Z 07010KT 26/11 A3012 RMK A01 T02610106  RH  038%=      5-min Rain = 0
KLA1 100343Z 06007KT 26/11 A3012 RMK A01 T02600106  RH  038%=      5-min Rain = 0
KLA1 100344Z 07010KT 26/11 A3012 RMK A01 T02600106  RH  038%=      5-min Rain = 0
KLA1 100345Z 06009KT 26/11 A3012 RMK A01 T02600106  RH  038%=      5-min Rain = 0
KLA1 100346Z 06011KT 26/11 A3012 RMK A01 T02600106  RH  038%=      5-min Rain = 0
KLA1 100347Z 06014G19KT 26/11 A3012 RMK A01 T02600106  RH  038%=      5-min Rain = 0
KLA1 100348Z 07011KT 26/11 A3012 RMK A01 T02600106  RH  038%=      5-min Rain = 0
KLA1 100349Z 07010G17KT 26/11 A3012 RMK A01 T02600106  RH  038%=      5-min Rain = 0
KLA1 100350Z 07011KT 26/11 A3012 RMK A01 T02600106  RH  038%=      5-min Rain = 0
KLA1 100351Z 07009G14KT 26/11 A3012 RMK A01 T02590106  RH  038%=      5-min Rain = 0
KLA1 100352Z 07010KT 26/11 A3012 RMK A01 T02590106  RH  038%=      5-min Rain = 0
KLA1 100353Z 06011KT 26/11 A3012 RMK A01 T02590106  RH  038%=      5-min Rain = 0
KLA1 100354Z 07010KT 26/11 A3012 RMK A01 T02580106  RH  038%=      5-min Rain = 0
KLA1 100355Z 08010KT 26/11 A3012 RMK A01 T02580106  RH  038%=      5-min Rain = 0
KLA1 100356Z 08009KT 26/11 A3012 RMK A01 T02580106  RH  038%=      5-min Rain = 0
KLA1 100357Z 07008KT 26/11 A3012 RMK A01 T02580106  RH  038%=      5-min Rain = 0
KLA1 100358Z 07015G20KT 26/11 A3012 RMK A01 T02570106  RH  039%=      5-min Rain = 0
KLA1 100359Z 07012G17KT 26/11 A3012 RMK A01 T02570105  RH  038%=      5-min Rain = 0
KLA1 100400Z 08012KT 26/11 A3012 RMK A01 T02570105  RH  038%=      5-min Rain = 0
KLA1 100401Z 07009KT 26/11 A3012 RMK A01 T02570105  RH  038%=      5-min Rain = 0
KLA1 100402Z 07011KT 26/11 A3012 RMK A01 T02580105  RH  038%=      5-min Rain = 0
KLA1 100403Z 07011KT 26/11 A3012 RMK A01 T02570105  RH  038%=      5-min Rain = 0
KLA1 100404Z 07009KT 26/11 A3012 RMK A01 T02570105  RH  038%=      5-min Rain = 0
KLA1 100405Z 06010KT 26/11 A3012 RMK A01 T02570105  RH  039%=      5-min Rain = 0
KLA1 100406Z 06010KT 26/11 A3012 RMK A01 T02560105  RH  039%=      5-min Rain = 0
KLA1 100407Z 07010KT 26/11 A3012 RMK A01 T02560105  RH  039%=      5-min Rain = 0
KLA1 100408Z 07010KT 26/11 A3012 RMK A01 T02560105  RH  039%=      5-min Rain = 0
KLA1 100409Z 06010KT 26/11 A3012 RMK A01 T02550105  RH  039%=      5-min Rain = 0
KLA1 100410Z 07009G15KT 26/11 A3012 RMK A01 T02550105  RH  039%=      5-min Rain = 0
KLA1 100411Z 07014KT 26/11 A3012 RMK A01 T02550105  RH  039%=      5-min Rain = 0
KLA1 100412Z 06011G17KT 26/11 A3012 RMK A01 T02550105  RH  039%=      5-min Rain = 0
KLA1 100413Z 06010G16KT 26/11 A3012 RMK A01 T02550105  RH  039%=      5-min Rain = 0
KLA1 100414Z 06012G17KT 26/11 A3012 RMK A01 T02550105  RH  039%=      5-min Rain = 0
KLA1 100415Z 07009KT 26/11 A3012 RMK A01 T02550105  RH  039%=      5-min Rain = 0
KLA1 100416Z 07009KT 26/11 A3012 RMK A01 T02550105  RH  039%=      5-min Rain = 0
KLA1 100417Z 07009KT 26/11 A3012 RMK A01 T02550105  RH  039%=      5-min Rain = 0
KLA1 100418Z 07011KT 26/11 A3012 RMK A01 T02550105  RH  039%=      5-min Rain = 0
KLA1 100419Z 07009KT 26/10 A3012 RMK A01 T02550104  RH  039%=      5-min Rain = 0
KLA1 100420Z 08011KT 26/11 A3012 RMK A01 T02550105  RH  039%=      5-min Rain = 0
KLA1 100421Z 08009KT 26/11 A3013 RMK A01 T02550105  RH  039%=      5-min Rain = 0
KLA1 100422Z 06009KT 26/11 A3013 RMK A01 T02550105  RH  039%=      5-min Rain = 0
KLA1 100423Z 09008KT 25/11 A3013 RMK A01 T02540105  RH  039%=      5-min Rain = 0
KLA1 100424Z 09009KT 25/10 A3013 RMK A01 T02540104  RH  039%=      5-min Rain = 0
KLA1 100425Z 08006KT 25/10 A3013 RMK A01 T02530104  RH  039%=      5-min Rain = 0
KLA1 100426Z 09006KT 25/11 A3013 RMK A01 T02530105  RH  039%=      5-min Rain = 0
KLA1 100427Z 09010G15KT 25/10 A3013 RMK A01 T02520104  RH  039%=      5-min Rain = 0
KLA1 100428Z 10010KT 25/10 A3013 RMK A01 T02520104  RH  039%=      5-min Rain = 0
KLA1 100429Z 10007KT 25/10 A3013 RMK A01 T02520104  RH  039%=      5-min Rain = 0
KLA1 100430Z 10009KT 25/10 A3013 RMK A01 T02510104  RH  039%=      5-min Rain = 0
KLA1 100431Z 10006G11KT 25/10 A3013 RMK A01 T02510104  RH  040%=      5-min Rain = 0
KLA1 100432Z 09008KT 25/10 A3013 RMK A01 T02510104  RH  040%=      5-min Rain = 0
KLA1 100433Z 10006KT 25/10 A3013 RMK A01 T02510104  RH  040%=      5-min Rain = 0
KLA1 100434Z 11008KT 25/10 A3014 RMK A01 T02500104  RH  040%=      5-min Rain = 0
KLA1 100435Z 10009KT 25/10 A3014 RMK A01 T02500104  RH  040%=      5-min Rain = 0
KLA1 100436Z 10009KT 25/10 A3014 RMK A01 T02500104  RH  040%=      5-min Rain = 0
KLA1 100437Z 10008KT 25/10 A3014 RMK A01 T02500104  RH  040%=      5-min Rain = 0
KLA1 100438Z 10008KT 25/11 A3014 RMK A01 T02510105  RH  040%=      5-min Rain = 0
KLA1 100439Z 09009KT 25/10 A3014 RMK A01 T02500104  RH  040%=      5-min Rain = 0
KLA1 100440Z 09008KT 25/10 A3014 RMK A01 T02500104  RH  040%=      5-min Rain = 0
KLA1 100441Z 09007KT 25/10 A3014 RMK A01 T02500104  RH  040%=      5-min Rain = 0
KLA1 100442Z 10007KT 25/10 A3014 RMK A01 T02500104  RH  040%=      5-min Rain = 0
KLA1 100443Z 10007KT 25/10 A3014 RMK A01 T02490104  RH  040%=      5-min Rain = 0
KLA1 100444Z 10009KT 25/11 A3014 RMK A01 T02490105  RH  040%=      5-min Rain = 0
KLA1 100445Z 08006KT 25/10 A3014 RMK A01 T02480104  RH  040%=      5-min Rain = 0
KLA1 100446Z 09008KT 25/11 A3014 RMK A01 T02480105  RH  040%=      5-min Rain = 0
KLA1 100447Z 10007KT 25/11 A3014 RMK A01 T02480105  RH  040%=      5-min Rain = 0
KLA1 100448Z 11011KT 25/10 A3014 RMK A01 T02480104  RH  040%=      5-min Rain = 0
KLA1 100449Z 08006KT 25/10 A3014 RMK A01 T02490104  RH  040%=      5-min Rain = 0
KLA1 100450Z 09005KT 25/10 A3014 RMK A01 T02490104  RH  040%=      5-min Rain = 0
KLA1 100451Z 10007KT 25/10 A3014 RMK A01 T02490104  RH  040%=      5-min Rain = 0
KLA1 100452Z 09006KT 25/10 A3014 RMK A01 T02480104  RH  040%=      5-min Rain = 0
KLA1 100453Z 10008KT 25/11 A3014 RMK A01 T02480105  RH  040%=      5-min Rain = 0
KLA1 100454Z 10005KT 25/11 A3014 RMK A01 T02480105  RH  040%=      5-min Rain = 0
KLA1 100455Z 10006KT 25/10 A3014 RMK A01 T02470104  RH  040%=      5-min Rain = 0
KLA1 100456Z 09005KT 25/10 A3014 RMK A01 T02470104  RH  041%=      5-min Rain = 0
KLA1 100457Z 10005KT 25/11 A3014 RMK A01 T02470105  RH  041%=      5-min Rain = 0
KLA1 100458Z 11005KT 25/10 A3014 RMK A01 T02460104  RH  041%=      5-min Rain = 0
KLA1 100459Z 08006KT 25/10 A3014 RMK A01 T02450104  RH  041%=      5-min Rain = 0

Page generated in 0.0716 seconds.